<?xml version='1.0' encoding='UTF-8'?><gpx version="1.1" creator="JPX - https://github.com/jenetics/jpx" xmlns="http://www.topografix.com/GPX/1/1"><trk><trkseg><trkpt lat="45.7870325" lon="12.1340569"><ele>102.33333333333333</ele><time>2026-04-11T15:30:07.057Z</time></trkpt><trkpt lat="45.7870907" lon="12.1339591"><ele>102.66666666666666</ele><time>2026-04-11T15:30:09.073Z</time></trkpt><trkpt lat="45.7871761" lon="12.1338346"><ele>103.0</ele><time>2026-04-11T15:30:11.062Z</time></trkpt><trkpt lat="45.7872272" lon="12.1337696"><ele>103.33333333333333</ele><time>2026-04-11T15:30:12.06Z</time></trkpt><trkpt lat="45.7872825" lon="12.1336973"><ele>103.66666666666666</ele><time>2026-04-11T15:30:13.068Z</time></trkpt><trkpt lat="45.7873365" lon="12.1336344"><ele>104.0</ele><time>2026-04-11T15:30:14.062Z</time></trkpt><trkpt lat="45.7873937" lon="12.1335904"><ele>103.99999999999999</ele><time>2026-04-11T15:30:15.06Z</time></trkpt><trkpt lat="45.7874594" lon="12.1335447"><ele>104.0</ele><time>2026-04-11T15:30:16.058Z</time></trkpt><trkpt lat="45.7875916" lon="12.1335105"><ele>104.0</ele><time>2026-04-11T15:30:18.071Z</time></trkpt><trkpt lat="45.7876675" lon="12.1335146"><ele>104.0</ele><time>2026-04-11T15:30:19.069Z</time></trkpt><trkpt lat="45.7877504" lon="12.1335213"><ele>103.99999999999999</ele><time>2026-04-11T15:30:20.063Z</time></trkpt><trkpt lat="45.7878322" lon="12.1335291"><ele>104.0</ele><time>2026-04-11T15:30:21.06Z</time></trkpt><trkpt lat="45.7879099" lon="12.13353"><ele>104.66666666666666</ele><time>2026-04-11T15:30:22.064Z</time></trkpt><trkpt lat="45.7879919" lon="12.1335225"><ele>105.33333333333333</ele><time>2026-04-11T15:30:23.069Z</time></trkpt><trkpt lat="45.7880628" lon="12.1335056"><ele>106.0</ele><time>2026-04-11T15:30:24.062Z</time></trkpt><trkpt lat="45.7881356" lon="12.1334741"><ele>106.66666666666666</ele><time>2026-04-11T15:30:25.069Z</time></trkpt><trkpt lat="45.7881909" lon="12.1334285"><ele>107.33333333333333</ele><time>2026-04-11T15:30:26.064Z</time></trkpt><trkpt lat="45.7882523" lon="12.1333599"><ele>108.0</ele><time>2026-04-11T15:30:27.071Z</time></trkpt><trkpt lat="45.788311" lon="12.1332771"><ele>108.66666666666667</ele><time>2026-04-11T15:30:28.061Z</time></trkpt><trkpt lat="45.7883681" lon="12.1331881"><ele>109.33333333333334</ele><time>2026-04-11T15:30:29.061Z</time></trkpt><trkpt lat="45.788418" lon="12.1331087"><ele>110.0</ele><time>2026-04-11T15:30:30.064Z</time></trkpt><trkpt lat="45.7884675" lon="12.1330413"><ele>110.66666666666667</ele><time>2026-04-11T15:30:31.067Z</time></trkpt><trkpt lat="45.7885236" lon="12.1329832"><ele>111.33333333333334</ele><time>2026-04-11T15:30:32.061Z</time></trkpt><trkpt lat="45.7885936" lon="12.1329248"><ele>112.0</ele><time>2026-04-11T15:30:33.061Z</time></trkpt><trkpt lat="45.7886703" lon="12.1328591"><ele>114.0</ele><time>2026-04-11T15:30:34.063Z</time></trkpt><trkpt lat="45.7887491" lon="12.1327963"><ele>115.99999999999999</ele><time>2026-04-11T15:30:35.062Z</time></trkpt><trkpt lat="45.788871" lon="12.1327278"><ele>117.99999999999999</ele><time>2026-04-11T15:30:37.067Z</time></trkpt><trkpt lat="45.788936" lon="12.1327163"><ele>120.0</ele><time>2026-04-11T15:30:38.074Z</time></trkpt><trkpt lat="45.789051" lon="12.1327572"><ele>122.0</ele><time>2026-04-11T15:30:40.071Z</time></trkpt><trkpt lat="45.7891011" lon="12.1328176"><ele>122.0</ele><time>2026-04-11T15:30:41.07Z</time></trkpt><trkpt lat="45.7891552" lon="12.1328975"><ele>121.99999999999999</ele><time>2026-04-11T15:30:42.056Z</time></trkpt><trkpt lat="45.7892132" lon="12.1329806"><ele>121.99999999999999</ele><time>2026-04-11T15:30:43.06Z</time></trkpt><trkpt lat="45.7892616" lon="12.13306"><ele>122.0</ele><time>2026-04-11T15:30:44.068Z</time></trkpt><trkpt lat="45.789334" lon="12.1331883"><ele>122.0</ele><time>2026-04-11T15:30:46.071Z</time></trkpt><trkpt lat="45.7893925" lon="12.1333263"><ele>124.16666666666666</ele><time>2026-04-11T15:30:48.066Z</time></trkpt><trkpt lat="45.789471" lon="12.1334375"><ele>126.33333333333333</ele><time>2026-04-11T15:30:50.063Z</time></trkpt><trkpt lat="45.7895435" lon="12.1334896"><ele>128.5</ele><time>2026-04-11T15:30:52.066Z</time></trkpt><trkpt lat="45.7896134" lon="12.1335053"><ele>130.66666666666666</ele><time>2026-04-11T15:30:54.067Z</time></trkpt><trkpt lat="45.7896975" lon="12.133491"><ele>132.83333333333334</ele><time>2026-04-11T15:30:56.067Z</time></trkpt><trkpt lat="45.7897919" lon="12.133462"><ele>135.0</ele><time>2026-04-11T15:30:58.061Z</time></trkpt><trkpt lat="45.7898846" lon="12.1334209"><ele>135.0</ele><time>2026-04-11T15:31:00.059Z</time></trkpt><trkpt lat="45.7899671" lon="12.133355"><ele>135.0</ele><time>2026-04-11T15:31:02.058Z</time></trkpt><trkpt lat="45.7900468" lon="12.1332901"><ele>135.0</ele><time>2026-04-11T15:31:04.065Z</time></trkpt><trkpt lat="45.7901295" lon="12.1332673"><ele>135.0</ele><time>2026-04-11T15:31:06.072Z</time></trkpt><trkpt lat="45.7902244" lon="12.1333064"><ele>135.0</ele><time>2026-04-11T15:31:08.072Z</time></trkpt><trkpt lat="45.7903249" lon="12.1333797"><ele>137.6</ele><time>2026-04-11T15:31:10.061Z</time></trkpt><trkpt lat="45.7904361" lon="12.1334439"><ele>140.2</ele><time>2026-04-11T15:31:12.07Z</time></trkpt><trkpt lat="45.7905005" lon="12.1334877"><ele>142.8</ele><time>2026-04-11T15:31:13.058Z</time></trkpt><trkpt lat="45.790558" lon="12.1335285"><ele>145.4</ele><time>2026-04-11T15:31:14.064Z</time></trkpt><trkpt lat="45.7906701" lon="12.1335909"><ele>148.0</ele><time>2026-04-11T15:31:16.065Z</time></trkpt><trkpt lat="45.7907875" lon="12.1336241"><ele>148.0</ele><time>2026-04-11T15:31:18.061Z</time></trkpt><trkpt lat="45.7908783" lon="12.1336289"><ele>148.0</ele><time>2026-04-11T15:31:20.063Z</time></trkpt><trkpt lat="45.7909931" lon="12.1336076"><ele>148.0</ele><time>2026-04-11T15:31:22.071Z</time></trkpt><trkpt lat="45.7910709" lon="12.1335875"><ele>148.0</ele><time>2026-04-11T15:31:23.066Z</time></trkpt><trkpt lat="45.791158" lon="12.1335729"><ele>148.0</ele><time>2026-04-11T15:31:24.069Z</time></trkpt><trkpt lat="45.7912438" lon="12.1335569"><ele>149.0</ele><time>2026-04-11T15:31:25.065Z</time></trkpt><trkpt lat="45.7913334" lon="12.1335503"><ele>150.0</ele><time>2026-04-11T15:31:26.066Z</time></trkpt><trkpt lat="45.791413" lon="12.1335463"><ele>151.0</ele><time>2026-04-11T15:31:27.063Z</time></trkpt><trkpt lat="45.7914793" lon="12.133547"><ele>152.0</ele><time>2026-04-11T15:31:28.062Z</time></trkpt><trkpt lat="45.7915499" lon="12.1335452"><ele>153.0</ele><time>2026-04-11T15:31:29.061Z</time></trkpt><trkpt lat="45.7916658" lon="12.1335117"><ele>154.0</ele><time>2026-04-11T15:31:31.063Z</time></trkpt><trkpt lat="45.7917832" lon="12.1334194"><ele>155.2</ele><time>2026-04-11T15:31:33.062Z</time></trkpt><trkpt lat="45.7918506" lon="12.1333412"><ele>156.4</ele><time>2026-04-11T15:31:34.071Z</time></trkpt><trkpt lat="45.7919311" lon="12.1332454"><ele>157.6</ele><time>2026-04-11T15:31:35.064Z</time></trkpt><trkpt lat="45.7920181" lon="12.1331326"><ele>158.8</ele><time>2026-04-11T15:31:36.073Z</time></trkpt><trkpt lat="45.7920882" lon="12.133037"><ele>160.0</ele><time>2026-04-11T15:31:37.065Z</time></trkpt><trkpt lat="45.7921495" lon="12.132958"><ele>160.0</ele><time>2026-04-11T15:31:38.061Z</time></trkpt><trkpt lat="45.7922518" lon="12.1328571"><ele>160.0</ele><time>2026-04-11T15:31:40.073Z</time></trkpt><trkpt lat="45.7923159" lon="12.132835"><ele>160.0</ele><time>2026-04-11T15:31:41.076Z</time></trkpt><trkpt lat="45.7923876" lon="12.1328282"><ele>160.0</ele><time>2026-04-11T15:31:42.07Z</time></trkpt><trkpt lat="45.792472" lon="12.1328252"><ele>160.0</ele><time>2026-04-11T15:31:43.06Z</time></trkpt><trkpt lat="45.7925545" lon="12.1328199"><ele>160.0</ele><time>2026-04-11T15:31:44.067Z</time></trkpt><trkpt lat="45.7926443" lon="12.1328104"><ele>162.6</ele><time>2026-04-11T15:31:45.061Z</time></trkpt><trkpt lat="45.7927476" lon="12.1327929"><ele>165.2</ele><time>2026-04-11T15:31:46.063Z</time></trkpt><trkpt lat="45.7928635" lon="12.132786"><ele>167.8</ele><time>2026-04-11T15:31:47.061Z</time></trkpt><trkpt lat="45.7929842" lon="12.1327787"><ele>170.4</ele><time>2026-04-11T15:31:48.064Z</time></trkpt><trkpt lat="45.7930702" lon="12.1327635"><ele>173.0</ele><time>2026-04-11T15:31:49.06Z</time></trkpt><trkpt lat="45.7931491" lon="12.1327548"><ele>173.0</ele><time>2026-04-11T15:31:50.061Z</time></trkpt><trkpt lat="45.7932141" lon="12.1327291"><ele>173.0</ele><time>2026-04-11T15:31:51.064Z</time></trkpt><trkpt lat="45.7933311" lon="12.1326631"><ele>173.0</ele><time>2026-04-11T15:31:53.066Z</time></trkpt><trkpt lat="45.7933975" lon="12.1326142"><ele>173.0</ele><time>2026-04-11T15:31:54.073Z</time></trkpt><trkpt lat="45.793465" lon="12.132552"><ele>173.0</ele><time>2026-04-11T15:31:55.059Z</time></trkpt><trkpt lat="45.793536" lon="12.1324864"><ele>173.0</ele><time>2026-04-11T15:31:56.073Z</time></trkpt><trkpt lat="45.7935955" lon="12.1324214"><ele>175.0</ele><time>2026-04-11T15:31:57.063Z</time></trkpt><trkpt lat="45.7936636" lon="12.1323506"><ele>177.0</ele><time>2026-04-11T15:31:58.062Z</time></trkpt><trkpt lat="45.7937345" lon="12.1322836"><ele>179.0</ele><time>2026-04-11T15:31:59.063Z</time></trkpt><trkpt lat="45.7938113" lon="12.1322218"><ele>181.0</ele><time>2026-04-11T15:32:00.06Z</time></trkpt><trkpt lat="45.79389" lon="12.1321556"><ele>183.0</ele><time>2026-04-11T15:32:01.059Z</time></trkpt><trkpt lat="45.793966" lon="12.1320978"><ele>185.0</ele><time>2026-04-11T15:32:02.067Z</time></trkpt><trkpt lat="45.7940369" lon="12.1320434"><ele>185.0</ele><time>2026-04-11T15:32:03.058Z</time></trkpt><trkpt lat="45.7941042" lon="12.1320017"><ele>185.0</ele><time>2026-04-11T15:32:04.063Z</time></trkpt><trkpt lat="45.7941711" lon="12.1319579"><ele>185.0</ele><time>2026-04-11T15:32:05.062Z</time></trkpt><trkpt lat="45.7942252" lon="12.1319023"><ele>185.0</ele><time>2026-04-11T15:32:06.061Z</time></trkpt><trkpt lat="45.7942763" lon="12.131838"><ele>185.0</ele><time>2026-04-11T15:32:07.058Z</time></trkpt><trkpt lat="45.7943307" lon="12.1317393"><ele>185.0</ele><time>2026-04-11T15:32:09.063Z</time></trkpt><trkpt lat="45.7943994" lon="12.1316329"><ele>187.33333333333331</ele><time>2026-04-11T15:32:11.058Z</time></trkpt><trkpt lat="45.7944502" lon="12.1315248"><ele>189.66666666666666</ele><time>2026-04-11T15:32:12.063Z</time></trkpt><trkpt lat="45.7944995" lon="12.1314665"><ele>192.0</ele><time>2026-04-11T15:32:13.063Z</time></trkpt><trkpt lat="45.7945468" lon="12.1313922"><ele>194.33333333333331</ele><time>2026-04-11T15:32:14.063Z</time></trkpt><trkpt lat="45.7945967" lon="12.1313288"><ele>196.66666666666666</ele><time>2026-04-11T15:32:15.06Z</time></trkpt><trkpt lat="45.794659" lon="12.1312329"><ele>199.0</ele><time>2026-04-11T15:32:16.064Z</time></trkpt><trkpt lat="45.7947231" lon="12.1311734"><ele>199.0</ele><time>2026-04-11T15:32:17.06Z</time></trkpt><trkpt lat="45.7948327" lon="12.1310974"><ele>199.0</ele><time>2026-04-11T15:32:19.065Z</time></trkpt><trkpt lat="45.7949395" lon="12.1310777"><ele>199.0</ele><time>2026-04-11T15:32:21.064Z</time></trkpt><trkpt lat="45.7950511" lon="12.1311065"><ele>199.0</ele><time>2026-04-11T15:32:23.058Z</time></trkpt><trkpt lat="45.7951657" lon="12.1311484"><ele>200.0</ele><time>2026-04-11T15:32:25.059Z</time></trkpt><trkpt lat="45.7952669" lon="12.1311497"><ele>201.0</ele><time>2026-04-11T15:32:27.062Z</time></trkpt><trkpt lat="45.7953583" lon="12.1311069"><ele>202.0</ele><time>2026-04-11T15:32:29.053Z</time></trkpt><trkpt lat="45.7954225" lon="12.131076"><ele>203.0</ele><time>2026-04-11T15:32:31.066Z</time></trkpt><trkpt lat="45.7954954" lon="12.1310248"><ele>204.0</ele><time>2026-04-11T15:32:46.056Z</time></trkpt><trkpt lat="45.7955847" lon="12.1309362"><ele>204.0</ele><time>2026-04-11T15:32:48.062Z</time></trkpt><trkpt lat="45.7956863" lon="12.1308325"><ele>204.0</ele><time>2026-04-11T15:32:50.072Z</time></trkpt><trkpt lat="45.7957474" lon="12.1307957"><ele>204.0</ele><time>2026-04-11T15:32:51.069Z</time></trkpt><trkpt lat="45.7958096" lon="12.1307613"><ele>204.0</ele><time>2026-04-11T15:32:52.061Z</time></trkpt><trkpt lat="45.7958819" lon="12.1307289"><ele>204.0</ele><time>2026-04-11T15:32:53.058Z</time></trkpt><trkpt lat="45.7959538" lon="12.1306894"><ele>204.0</ele><time>2026-04-11T15:32:54.063Z</time></trkpt><trkpt lat="45.796066" lon="12.1306306"><ele>205.5</ele><time>2026-04-11T15:32:56.07Z</time></trkpt><trkpt lat="45.7961698" lon="12.1305818"><ele>207.0</ele><time>2026-04-11T15:32:58.064Z</time></trkpt><trkpt lat="45.7962305" lon="12.1305489"><ele>208.5</ele><time>2026-04-11T15:32:59.057Z</time></trkpt><trkpt lat="45.7962925" lon="12.1305145"><ele>210.0</ele><time>2026-04-11T15:33:00.06Z</time></trkpt><trkpt lat="45.7963539" lon="12.1304744"><ele>211.5</ele><time>2026-04-11T15:33:01.064Z</time></trkpt><trkpt lat="45.7964462" lon="12.1304146"><ele>213.0</ele><time>2026-04-11T15:33:03.06Z</time></trkpt><trkpt lat="45.7965353" lon="12.1304276"><ele>213.0</ele><time>2026-04-11T15:33:05.065Z</time></trkpt><trkpt lat="45.7965844" lon="12.1304963"><ele>213.0</ele><time>2026-04-11T15:33:07.059Z</time></trkpt><trkpt lat="45.796603" lon="12.1306297"><ele>213.0</ele><time>2026-04-11T15:33:09.056Z</time></trkpt><trkpt lat="45.7965595" lon="12.1307725"><ele>213.0</ele><time>2026-04-11T15:33:11.06Z</time></trkpt><trkpt lat="45.7965161" lon="12.1308403"><ele>213.0</ele><time>2026-04-11T15:33:12.062Z</time></trkpt><trkpt lat="45.7964575" lon="12.1309263"><ele>213.0</ele><time>2026-04-11T15:33:13.066Z</time></trkpt><trkpt lat="45.796402" lon="12.1310113"><ele>212.60000000000002</ele><time>2026-04-11T15:33:14.071Z</time></trkpt><trkpt lat="45.7963482" lon="12.131103"><ele>212.20000000000002</ele><time>2026-04-11T15:33:15.059Z</time></trkpt><trkpt lat="45.796314" lon="12.1312167"><ele>211.8</ele><time>2026-04-11T15:33:16.063Z</time></trkpt><trkpt lat="45.7962733" lon="12.1313443"><ele>211.4</ele><time>2026-04-11T15:33:17.06Z</time></trkpt><trkpt lat="45.7962455" lon="12.1314767"><ele>211.0</ele><time>2026-04-11T15:33:18.056Z</time></trkpt><trkpt lat="45.7961993" lon="12.1315842"><ele>211.66666666666666</ele><time>2026-04-11T15:33:19.064Z</time></trkpt><trkpt lat="45.7961682" lon="12.1316723"><ele>212.33333333333331</ele><time>2026-04-11T15:33:20.062Z</time></trkpt><trkpt lat="45.796124" lon="12.1317627"><ele>213.0</ele><time>2026-04-11T15:33:21.057Z</time></trkpt><trkpt lat="45.7961032" lon="12.1318689"><ele>213.66666666666669</ele><time>2026-04-11T15:33:23.063Z</time></trkpt><trkpt lat="45.7961601" lon="12.1319376"><ele>214.33333333333334</ele><time>2026-04-11T15:33:25.064Z</time></trkpt><trkpt lat="45.7962219" lon="12.1320012"><ele>215.0</ele><time>2026-04-11T15:33:27.061Z</time></trkpt><trkpt lat="45.7963449" lon="12.1320387"><ele>215.0</ele><time>2026-04-11T15:33:29.069Z</time></trkpt><trkpt lat="45.7964283" lon="12.1320484"><ele>215.0</ele><time>2026-04-11T15:33:30.065Z</time></trkpt><trkpt lat="45.796554" lon="12.132094"><ele>215.0</ele><time>2026-04-11T15:33:31.056Z</time></trkpt><trkpt lat="45.7966561" lon="12.1321331"><ele>215.0</ele><time>2026-04-11T15:33:32.057Z</time></trkpt><trkpt lat="45.7967639" lon="12.1321572"><ele>215.0</ele><time>2026-04-11T15:33:33.057Z</time></trkpt><trkpt lat="45.7968505" lon="12.132145"><ele>216.25</ele><time>2026-04-11T15:33:34.058Z</time></trkpt><trkpt lat="45.7969658" lon="12.1321244"><ele>217.5</ele><time>2026-04-11T15:33:35.054Z</time></trkpt><trkpt lat="45.7971004" lon="12.132137"><ele>218.75</ele><time>2026-04-11T15:33:37.057Z</time></trkpt><trkpt lat="45.7971945" lon="12.1322232"><ele>220.0</ele><time>2026-04-11T15:33:39.063Z</time></trkpt><trkpt lat="45.7972333" lon="12.1323922"><ele>219.99999999999997</ele><time>2026-04-11T15:33:41.073Z</time></trkpt><trkpt lat="45.797283" lon="12.1325283"><ele>220.0</ele><time>2026-04-11T15:33:42.062Z</time></trkpt><trkpt lat="45.7973029" lon="12.1326222"><ele>220.0</ele><time>2026-04-11T15:33:43.064Z</time></trkpt><trkpt lat="45.7973686" lon="12.1327041"><ele>220.0</ele><time>2026-04-11T15:33:44.067Z</time></trkpt><trkpt lat="45.7974204" lon="12.1327833"><ele>219.99999999999997</ele><time>2026-04-11T15:33:45.054Z</time></trkpt><trkpt lat="45.7974911" lon="12.1328767"><ele>220.0</ele><time>2026-04-11T15:33:46.059Z</time></trkpt><trkpt lat="45.7975893" lon="12.132959"><ele>220.0</ele><time>2026-04-11T15:33:47.054Z</time></trkpt><trkpt lat="45.7976578" lon="12.1330336"><ele>220.0</ele><time>2026-04-11T15:33:48.063Z</time></trkpt><trkpt lat="45.7977114" lon="12.1330881"><ele>220.0</ele><time>2026-04-11T15:33:49.062Z</time></trkpt><trkpt lat="45.797829" lon="12.1331376"><ele>220.0</ele><time>2026-04-11T15:33:51.071Z</time></trkpt><trkpt lat="45.7979188" lon="12.1331455"><ele>220.0</ele><time>2026-04-11T15:33:52.06Z</time></trkpt><trkpt lat="45.7980092" lon="12.1331615"><ele>219.83333333333331</ele><time>2026-04-11T15:33:53.056Z</time></trkpt><trkpt lat="45.7980976" lon="12.1331885"><ele>219.66666666666666</ele><time>2026-04-11T15:33:54.076Z</time></trkpt><trkpt lat="45.7981814" lon="12.1332214"><ele>219.5</ele><time>2026-04-11T15:33:55.059Z</time></trkpt><trkpt lat="45.7982636" lon="12.1332562"><ele>219.33333333333331</ele><time>2026-04-11T15:33:56.061Z</time></trkpt><trkpt lat="45.7983283" lon="12.1332794"><ele>219.16666666666666</ele><time>2026-04-11T15:33:57.067Z</time></trkpt><trkpt lat="45.7983952" lon="12.1333134"><ele>219.0</ele><time>2026-04-11T15:33:58.072Z</time></trkpt><trkpt lat="45.7984568" lon="12.133344"><ele>219.5</ele><time>2026-04-11T15:33:59.06Z</time></trkpt><trkpt lat="45.7985556" lon="12.1333645"><ele>220.0</ele><time>2026-04-11T15:34:01.072Z</time></trkpt><trkpt lat="45.7986238" lon="12.1333463"><ele>220.5</ele><time>2026-04-11T15:34:03.056Z</time></trkpt><trkpt lat="45.7986609" lon="12.1332653"><ele>221.0</ele><time>2026-04-11T15:34:05.062Z</time></trkpt><trkpt lat="45.7986624" lon="12.1331566"><ele>221.5</ele><time>2026-04-11T15:34:06.06Z</time></trkpt><trkpt lat="45.7986516" lon="12.1330126"><ele>222.0</ele><time>2026-04-11T15:34:08.061Z</time></trkpt><trkpt lat="45.7986659" lon="12.1329006"><ele>222.0</ele><time>2026-04-11T15:34:10.064Z</time></trkpt><trkpt lat="45.7987321" lon="12.1328874"><ele>222.0</ele><time>2026-04-11T15:34:11.06Z</time></trkpt><trkpt lat="45.7988286" lon="12.1328888"><ele>222.0</ele><time>2026-04-11T15:34:13.062Z</time></trkpt><trkpt lat="45.7989562" lon="12.1329516"><ele>222.0</ele><time>2026-04-11T15:34:15.057Z</time></trkpt><trkpt lat="45.7990425" lon="12.133013"><ele>222.0</ele><time>2026-04-11T15:34:16.06Z</time></trkpt><trkpt lat="45.7991148" lon="12.1330604"><ele>222.0</ele><time>2026-04-11T15:34:17.066Z</time></trkpt><trkpt lat="45.7991856" lon="12.1330954"><ele>222.0</ele><time>2026-04-11T15:34:18.065Z</time></trkpt><trkpt lat="45.7992481" lon="12.1331107"><ele>222.0</ele><time>2026-04-11T15:34:19.062Z</time></trkpt><trkpt lat="45.799364" lon="12.1331026"><ele>222.0</ele><time>2026-04-11T15:34:21.068Z</time></trkpt><trkpt lat="45.7994627" lon="12.1330203"><ele>222.0</ele><time>2026-04-11T15:34:23.066Z</time></trkpt><trkpt lat="45.7995089" lon="12.1329567"><ele>222.0</ele><time>2026-04-11T15:34:24.069Z</time></trkpt><trkpt lat="45.7996135" lon="12.1328618"><ele>221.2</ele><time>2026-04-11T15:34:26.067Z</time></trkpt><trkpt lat="45.7997337" lon="12.132812"><ele>220.39999999999998</ele><time>2026-04-11T15:34:28.059Z</time></trkpt><trkpt lat="45.7997964" lon="12.1327919"><ele>219.60000000000002</ele><time>2026-04-11T15:34:29.06Z</time></trkpt><trkpt lat="45.7998823" lon="12.1327277"><ele>218.8</ele><time>2026-04-11T15:34:32.059Z</time></trkpt><trkpt lat="45.799976" lon="12.1326518"><ele>218.0</ele><time>2026-04-11T15:34:34.066Z</time></trkpt><trkpt lat="45.8000629" lon="12.1327013"><ele>218.00000000000003</ele><time>2026-04-11T15:34:36.063Z</time></trkpt><trkpt lat="45.8001018" lon="12.1328078"><ele>218.0</ele><time>2026-04-11T15:34:39.059Z</time></trkpt><trkpt lat="45.8000841" lon="12.1328994"><ele>218.0</ele><time>2026-04-11T15:34:41.061Z</time></trkpt><trkpt lat="45.7999975" lon="12.1329816"><ele>218.0</ele><time>2026-04-11T15:34:43.071Z</time></trkpt><trkpt lat="45.79993" lon="12.1331196"><ele>218.00000000000003</ele><time>2026-04-11T15:34:45.059Z</time></trkpt><trkpt lat="45.7998945" lon="12.1332008"><ele>218.0</ele><time>2026-04-11T15:34:46.062Z</time></trkpt><trkpt lat="45.7999043" lon="12.1332943"><ele>216.5</ele><time>2026-04-11T15:34:47.071Z</time></trkpt><trkpt lat="45.7998999" lon="12.1334732"><ele>215.0</ele><time>2026-04-11T15:34:49.063Z</time></trkpt><trkpt lat="45.7998931" lon="12.1336312"><ele>213.5</ele><time>2026-04-11T15:34:51.055Z</time></trkpt><trkpt lat="45.7999053" lon="12.1338105"><ele>212.0</ele><time>2026-04-11T15:34:53.058Z</time></trkpt><trkpt lat="45.7999174" lon="12.1339987"><ele>212.66666666666669</ele><time>2026-04-11T15:34:55.065Z</time></trkpt><trkpt lat="45.7999206" lon="12.1340957"><ele>213.33333333333334</ele><time>2026-04-11T15:34:56.057Z</time></trkpt><trkpt lat="45.7999281" lon="12.1342051"><ele>214.0</ele><time>2026-04-11T15:34:57.061Z</time></trkpt><trkpt lat="45.7999384" lon="12.1343316"><ele>214.66666666666669</ele><time>2026-04-11T15:34:58.062Z</time></trkpt><trkpt lat="45.799948" lon="12.1344296"><ele>215.33333333333334</ele><time>2026-04-11T15:34:59.058Z</time></trkpt><trkpt lat="45.7999591" lon="12.1345271"><ele>216.0</ele><time>2026-04-11T15:35:00.068Z</time></trkpt><trkpt lat="45.7999975" lon="12.1346629"><ele>216.0</ele><time>2026-04-11T15:35:02.059Z</time></trkpt><trkpt lat="45.8000606" lon="12.134736"><ele>216.00000000000003</ele><time>2026-04-11T15:35:04.066Z</time></trkpt><trkpt lat="45.8001321" lon="12.1347001"><ele>216.00000000000003</ele><time>2026-04-11T15:35:06.064Z</time></trkpt><trkpt lat="45.8002252" lon="12.1345588"><ele>216.0</ele><time>2026-04-11T15:35:08.067Z</time></trkpt><trkpt lat="45.8002914" lon="12.1344662"><ele>216.0</ele><time>2026-04-11T15:35:09.066Z</time></trkpt><trkpt lat="45.8003617" lon="12.1343712"><ele>217.8</ele><time>2026-04-11T15:35:10.064Z</time></trkpt><trkpt lat="45.8004523" lon="12.1342483"><ele>219.60000000000002</ele><time>2026-04-11T15:35:11.062Z</time></trkpt><trkpt lat="45.8005262" lon="12.1341271"><ele>221.4</ele><time>2026-04-11T15:35:12.057Z</time></trkpt><trkpt lat="45.8005948" lon="12.1340212"><ele>223.2</ele><time>2026-04-11T15:35:13.061Z</time></trkpt><trkpt lat="45.800655" lon="12.1339335"><ele>225.0</ele><time>2026-04-11T15:35:14.064Z</time></trkpt><trkpt lat="45.8007094" lon="12.1338459"><ele>226.4</ele><time>2026-04-11T15:35:15.056Z</time></trkpt><trkpt lat="45.8007697" lon="12.1337733"><ele>227.8</ele><time>2026-04-11T15:35:16.063Z</time></trkpt><trkpt lat="45.8008747" lon="12.1337749"><ele>229.2</ele><time>2026-04-11T15:35:18.06Z</time></trkpt><trkpt lat="45.8010117" lon="12.1337878"><ele>230.6</ele><time>2026-04-11T15:35:20.057Z</time></trkpt><trkpt lat="45.8010988" lon="12.1337834"><ele>232.0</ele><time>2026-04-11T15:35:21.059Z</time></trkpt><trkpt lat="45.8011993" lon="12.1338024"><ele>234.0</ele><time>2026-04-11T15:35:22.06Z</time></trkpt><trkpt lat="45.8013006" lon="12.1338123"><ele>236.0</ele><time>2026-04-11T15:35:23.055Z</time></trkpt><trkpt lat="45.801403" lon="12.1338477"><ele>238.0</ele><time>2026-04-11T15:35:24.062Z</time></trkpt><trkpt lat="45.8015014" lon="12.1338473"><ele>240.0</ele><time>2026-04-11T15:35:25.058Z</time></trkpt><trkpt lat="45.8015875" lon="12.1338806"><ele>242.0</ele><time>2026-04-11T15:35:26.062Z</time></trkpt><trkpt lat="45.801666" lon="12.1338913"><ele>242.00000000000003</ele><time>2026-04-11T15:35:27.06Z</time></trkpt><trkpt lat="45.8017448" lon="12.1339077"><ele>242.0</ele><time>2026-04-11T15:35:28.067Z</time></trkpt><trkpt lat="45.8018185" lon="12.1338984"><ele>242.0</ele><time>2026-04-11T15:35:29.07Z</time></trkpt><trkpt lat="45.8018901" lon="12.1339114"><ele>242.0</ele><time>2026-04-11T15:35:30.069Z</time></trkpt><trkpt lat="45.8019846" lon="12.1339094"><ele>242.00000000000003</ele><time>2026-04-11T15:35:31.058Z</time></trkpt><trkpt lat="45.8020609" lon="12.1338952"><ele>242.0</ele><time>2026-04-11T15:35:32.067Z</time></trkpt><trkpt lat="45.802141" lon="12.1338628"><ele>242.50000000000003</ele><time>2026-04-11T15:35:33.061Z</time></trkpt><trkpt lat="45.8022204" lon="12.1338157"><ele>243.0</ele><time>2026-04-11T15:35:34.061Z</time></trkpt><trkpt lat="45.802297" lon="12.1337727"><ele>243.5</ele><time>2026-04-11T15:35:35.062Z</time></trkpt><trkpt lat="45.8023576" lon="12.1337392"><ele>244.0</ele><time>2026-04-11T15:35:36.06Z</time></trkpt><trkpt lat="45.8024204" lon="12.1337164"><ele>244.50000000000003</ele><time>2026-04-11T15:35:37.064Z</time></trkpt><trkpt lat="45.8024834" lon="12.1337037"><ele>245.0</ele><time>2026-04-11T15:35:38.068Z</time></trkpt><trkpt lat="45.8026141" lon="12.1337313"><ele>243.8</ele><time>2026-04-11T15:35:40.061Z</time></trkpt><trkpt lat="45.802679" lon="12.1337673"><ele>242.6</ele><time>2026-04-11T15:35:41.055Z</time></trkpt><trkpt lat="45.8027423" lon="12.1337693"><ele>241.39999999999998</ele><time>2026-04-11T15:35:42.056Z</time></trkpt><trkpt lat="45.8028395" lon="12.1338209"><ele>240.2</ele><time>2026-04-11T15:35:44.068Z</time></trkpt><trkpt lat="45.8029473" lon="12.1339083"><ele>239.0</ele><time>2026-04-11T15:35:46.067Z</time></trkpt><trkpt lat="45.8030281" lon="12.1339996"><ele>239.16666666666669</ele><time>2026-04-11T15:35:47.056Z</time></trkpt><trkpt lat="45.8031012" lon="12.1340809"><ele>239.33333333333334</ele><time>2026-04-11T15:35:48.055Z</time></trkpt><trkpt lat="45.8031592" lon="12.1341586"><ele>239.5</ele><time>2026-04-11T15:35:49.068Z</time></trkpt><trkpt lat="45.8032254" lon="12.1342332"><ele>239.66666666666669</ele><time>2026-04-11T15:35:50.056Z</time></trkpt><trkpt lat="45.8032791" lon="12.1343567"><ele>239.83333333333334</ele><time>2026-04-11T15:35:52.06Z</time></trkpt><trkpt lat="45.8033538" lon="12.1344"><ele>240.0</ele><time>2026-04-11T15:35:54.059Z</time></trkpt><trkpt lat="45.8034479" lon="12.1343969"><ele>241.4</ele><time>2026-04-11T15:36:03.062Z</time></trkpt><trkpt lat="45.8035576" lon="12.1343398"><ele>242.8</ele><time>2026-04-11T15:36:05.072Z</time></trkpt><trkpt lat="45.8036401" lon="12.1342893"><ele>244.2</ele><time>2026-04-11T15:36:06.067Z</time></trkpt><trkpt lat="45.8037362" lon="12.134236"><ele>245.6</ele><time>2026-04-11T15:36:07.069Z</time></trkpt><trkpt lat="45.8038396" lon="12.1341696"><ele>247.0</ele><time>2026-04-11T15:36:08.068Z</time></trkpt><trkpt lat="45.8039466" lon="12.1341155"><ele>247.0</ele><time>2026-04-11T15:36:09.058Z</time></trkpt><trkpt lat="45.8040569" lon="12.1340667"><ele>247.0</ele><time>2026-04-11T15:36:10.061Z</time></trkpt><trkpt lat="45.8041615" lon="12.134021"><ele>247.0</ele><time>2026-04-11T15:36:11.059Z</time></trkpt><trkpt lat="45.8042659" lon="12.133973"><ele>247.0</ele><time>2026-04-11T15:36:12.054Z</time></trkpt><trkpt lat="45.8043704" lon="12.1339079"><ele>247.0</ele><time>2026-04-11T15:36:13.064Z</time></trkpt><trkpt lat="45.8044695" lon="12.1338522"><ele>248.6</ele><time>2026-04-11T15:36:14.062Z</time></trkpt><trkpt lat="45.804574" lon="12.1337899"><ele>250.2</ele><time>2026-04-11T15:36:15.058Z</time></trkpt><trkpt lat="45.8046714" lon="12.1337486"><ele>251.8</ele><time>2026-04-11T15:36:16.06Z</time></trkpt><trkpt lat="45.8047554" lon="12.1336949"><ele>253.4</ele><time>2026-04-11T15:36:17.06Z</time></trkpt><trkpt lat="45.8048201" lon="12.1336552"><ele>255.0</ele><time>2026-04-11T15:36:18.057Z</time></trkpt><trkpt lat="45.8048977" lon="12.1336109"><ele>255.0</ele><time>2026-04-11T15:36:20.065Z</time></trkpt><trkpt lat="45.8049748" lon="12.1335016"><ele>255.0</ele><time>2026-04-11T15:36:22.063Z</time></trkpt><trkpt lat="45.8050295" lon="12.1334101"><ele>255.0</ele><time>2026-04-11T15:36:23.068Z</time></trkpt><trkpt lat="45.8050932" lon="12.1333144"><ele>255.0</ele><time>2026-04-11T15:36:24.058Z</time></trkpt><trkpt lat="45.8051513" lon="12.1332119"><ele>255.0</ele><time>2026-04-11T15:36:25.061Z</time></trkpt><trkpt lat="45.8052106" lon="12.1331266"><ele>256.2</ele><time>2026-04-11T15:36:26.066Z</time></trkpt><trkpt lat="45.8053064" lon="12.1330018"><ele>257.4</ele><time>2026-04-11T15:36:28.059Z</time></trkpt><trkpt lat="45.805427" lon="12.1329146"><ele>258.6</ele><time>2026-04-11T15:36:30.073Z</time></trkpt><trkpt lat="45.8055087" lon="12.1328803"><ele>259.8</ele><time>2026-04-11T15:36:31.06Z</time></trkpt><trkpt lat="45.8055999" lon="12.1328475"><ele>261.0</ele><time>2026-04-11T15:36:32.06Z</time></trkpt><trkpt lat="45.8056889" lon="12.1328114"><ele>261.0</ele><time>2026-04-11T15:36:33.061Z</time></trkpt><trkpt lat="45.8057667" lon="12.1327966"><ele>261.0</ele><time>2026-04-11T15:36:34.06Z</time></trkpt><trkpt lat="45.8058887" lon="12.1328214"><ele>261.0</ele><time>2026-04-11T15:36:36.062Z</time></trkpt><trkpt lat="45.805991" lon="12.1329246"><ele>261.0</ele><time>2026-04-11T15:36:38.06Z</time></trkpt><trkpt lat="45.8060493" lon="12.1330166"><ele>261.0</ele><time>2026-04-11T15:36:39.063Z</time></trkpt><trkpt lat="45.8061127" lon="12.133101"><ele>261.2</ele><time>2026-04-11T15:36:40.059Z</time></trkpt><trkpt lat="45.8061881" lon="12.1331859"><ele>261.40000000000003</ele><time>2026-04-11T15:36:41.065Z</time></trkpt><trkpt lat="45.8062613" lon="12.1332659"><ele>261.6</ele><time>2026-04-11T15:36:42.065Z</time></trkpt><trkpt lat="45.8063343" lon="12.1333602"><ele>261.8</ele><time>2026-04-11T15:36:43.055Z</time></trkpt><trkpt lat="45.8064398" lon="12.1334702"><ele>262.0</ele><time>2026-04-11T15:36:45.054Z</time></trkpt><trkpt lat="45.8065569" lon="12.1335331"><ele>262.16666666666663</ele><time>2026-04-11T15:36:47.058Z</time></trkpt><trkpt lat="45.8066874" lon="12.1335459"><ele>262.3333333333333</ele><time>2026-04-11T15:36:49.063Z</time></trkpt><trkpt lat="45.8067571" lon="12.1335387"><ele>262.5</ele><time>2026-04-11T15:36:50.067Z</time></trkpt><trkpt lat="45.8068311" lon="12.1335235"><ele>262.6666666666667</ele><time>2026-04-11T15:36:51.057Z</time></trkpt><trkpt lat="45.8069031" lon="12.1334929"><ele>262.83333333333337</ele><time>2026-04-11T15:36:52.057Z</time></trkpt><trkpt lat="45.8069799" lon="12.1334533"><ele>263.0</ele><time>2026-04-11T15:36:53.056Z</time></trkpt><trkpt lat="45.8070652" lon="12.1333868"><ele>262.6666666666667</ele><time>2026-04-11T15:36:54.065Z</time></trkpt><trkpt lat="45.8071268" lon="12.1332984"><ele>262.33333333333337</ele><time>2026-04-11T15:36:55.061Z</time></trkpt><trkpt lat="45.8071937" lon="12.1332145"><ele>262.0</ele><time>2026-04-11T15:36:56.066Z</time></trkpt><trkpt lat="45.8072554" lon="12.1331327"><ele>261.6666666666667</ele><time>2026-04-11T15:36:57.058Z</time></trkpt><trkpt lat="45.8073329" lon="12.1330094"><ele>261.3333333333333</ele><time>2026-04-11T15:36:59.059Z</time></trkpt><trkpt lat="45.8073937" lon="12.1329597"><ele>261.0</ele><time>2026-04-11T15:37:00.056Z</time></trkpt><trkpt lat="45.8074586" lon="12.1329178"><ele>261.0</ele><time>2026-04-11T15:37:01.066Z</time></trkpt><trkpt lat="45.8075346" lon="12.1328871"><ele>261.0</ele><time>2026-04-11T15:37:02.058Z</time></trkpt><trkpt lat="45.807617" lon="12.1328638"><ele>261.0</ele><time>2026-04-11T15:37:03.067Z</time></trkpt><trkpt lat="45.8077039" lon="12.1328317"><ele>261.0</ele><time>2026-04-11T15:37:04.063Z</time></trkpt><trkpt lat="45.8077922" lon="12.1328021"><ele>261.0</ele><time>2026-04-11T15:37:05.063Z</time></trkpt><trkpt lat="45.807868" lon="12.1327481"><ele>261.0</ele><time>2026-04-11T15:37:06.06Z</time></trkpt><trkpt lat="45.8079491" lon="12.1326891"><ele>262.40000000000003</ele><time>2026-04-11T15:37:07.063Z</time></trkpt><trkpt lat="45.808032" lon="12.1326321"><ele>263.8</ele><time>2026-04-11T15:37:08.069Z</time></trkpt><trkpt lat="45.8081148" lon="12.1325841"><ele>265.20000000000005</ele><time>2026-04-11T15:37:09.084Z</time></trkpt><trkpt lat="45.8082034" lon="12.1325342"><ele>266.6</ele><time>2026-04-11T15:37:10.055Z</time></trkpt><trkpt lat="45.808292" lon="12.1324847"><ele>268.0</ele><time>2026-04-11T15:37:11.058Z</time></trkpt><trkpt lat="45.8083781" lon="12.132443"><ele>268.0</ele><time>2026-04-11T15:37:12.058Z</time></trkpt><trkpt lat="45.8084645" lon="12.1324043"><ele>268.0</ele><time>2026-04-11T15:37:13.057Z</time></trkpt><trkpt lat="45.8085557" lon="12.1323583"><ele>268.0</ele><time>2026-04-11T15:37:14.055Z</time></trkpt><trkpt lat="45.8086325" lon="12.132312"><ele>268.0</ele><time>2026-04-11T15:37:15.059Z</time></trkpt><trkpt lat="45.8086973" lon="12.1322567"><ele>268.0</ele><time>2026-04-11T15:37:16.076Z</time></trkpt><trkpt lat="45.8087592" lon="12.1321825"><ele>268.0</ele><time>2026-04-11T15:37:17.062Z</time></trkpt><trkpt lat="45.8088138" lon="12.1320998"><ele>268.8333333333333</ele><time>2026-04-11T15:37:18.065Z</time></trkpt><trkpt lat="45.8088969" lon="12.1320209"><ele>269.66666666666663</ele><time>2026-04-11T15:37:20.063Z</time></trkpt><trkpt lat="45.8089621" lon="12.1320157"><ele>270.5</ele><time>2026-04-11T15:37:22.07Z</time></trkpt><trkpt lat="45.8090471" lon="12.1320715"><ele>271.3333333333333</ele><time>2026-04-11T15:37:24.061Z</time></trkpt><trkpt lat="45.809106" lon="12.1321202"><ele>272.1666666666667</ele><time>2026-04-11T15:37:25.066Z</time></trkpt><trkpt lat="45.8092052" lon="12.1321691"><ele>273.0</ele><time>2026-04-11T15:37:27.065Z</time></trkpt><trkpt lat="45.8092972" lon="12.1321801"><ele>273.2</ele><time>2026-04-11T15:37:29.057Z</time></trkpt><trkpt lat="45.8094011" lon="12.132178"><ele>273.4</ele><time>2026-04-11T15:37:31.058Z</time></trkpt><trkpt lat="45.8095018" lon="12.1321484"><ele>273.59999999999997</ele><time>2026-04-11T15:37:33.064Z</time></trkpt><trkpt lat="45.8095861" lon="12.1321141"><ele>273.8</ele><time>2026-04-11T15:37:35.057Z</time></trkpt><trkpt lat="45.8096734" lon="12.1320582"><ele>274.0</ele><time>2026-04-11T15:37:37.058Z</time></trkpt><trkpt lat="45.8097628" lon="12.1319981"><ele>274.0</ele><time>2026-04-11T15:37:39.07Z</time></trkpt><trkpt lat="45.8098596" lon="12.1319324"><ele>274.0</ele><time>2026-04-11T15:37:41.059Z</time></trkpt><trkpt lat="45.8099452" lon="12.1319123"><ele>274.0</ele><time>2026-04-11T15:37:43.059Z</time></trkpt><trkpt lat="45.81002" lon="12.1319201"><ele>274.0</ele><time>2026-04-11T15:37:45.054Z</time></trkpt><trkpt lat="45.8101001" lon="12.1319423"><ele>274.0</ele><time>2026-04-11T15:37:47.063Z</time></trkpt><trkpt lat="45.8101809" lon="12.1319816"><ele>274.0</ele><time>2026-04-11T15:37:49.066Z</time></trkpt><trkpt lat="45.8102527" lon="12.132053"><ele>274.16666666666663</ele><time>2026-04-11T15:37:51.057Z</time></trkpt><trkpt lat="45.8103176" lon="12.1321317"><ele>274.3333333333333</ele><time>2026-04-11T15:37:53.072Z</time></trkpt><trkpt lat="45.8103824" lon="12.1322101"><ele>274.5</ele><time>2026-04-11T15:37:55.061Z</time></trkpt><trkpt lat="45.8104997" lon="12.1322193"><ele>274.6666666666667</ele><time>2026-04-11T15:37:57.062Z</time></trkpt><trkpt lat="45.8105595" lon="12.1321896"><ele>274.83333333333337</ele><time>2026-04-11T15:37:58.062Z</time></trkpt><trkpt lat="45.8106227" lon="12.1321724"><ele>275.0</ele><time>2026-04-11T15:37:59.069Z</time></trkpt><trkpt lat="45.8106948" lon="12.1321907"><ele>275.0</ele><time>2026-04-11T15:38:00.056Z</time></trkpt><trkpt lat="45.8107695" lon="12.1322012"><ele>275.0</ele><time>2026-04-11T15:38:01.057Z</time></trkpt><trkpt lat="45.8108491" lon="12.1322622"><ele>275.0</ele><time>2026-04-11T15:38:02.064Z</time></trkpt><trkpt lat="45.8109106" lon="12.132357"><ele>275.0</ele><time>2026-04-11T15:38:03.067Z</time></trkpt><trkpt lat="45.8109778" lon="12.1324368"><ele>275.0</ele><time>2026-04-11T15:38:04.055Z</time></trkpt><trkpt lat="45.8110322" lon="12.132503"><ele>275.0</ele><time>2026-04-11T15:38:05.061Z</time></trkpt><trkpt lat="45.8110856" lon="12.1325663"><ele>273.6</ele><time>2026-04-11T15:38:06.058Z</time></trkpt><trkpt lat="45.8111948" lon="12.1326398"><ele>272.2</ele><time>2026-04-11T15:38:08.06Z</time></trkpt><trkpt lat="45.8113149" lon="12.1326453"><ele>270.8</ele><time>2026-04-11T15:38:10.058Z</time></trkpt><trkpt lat="45.8113633" lon="12.1325695"><ele>269.4</ele><time>2026-04-11T15:38:11.066Z</time></trkpt><trkpt lat="45.8114169" lon="12.1324785"><ele>268.0</ele><time>2026-04-11T15:38:12.061Z</time></trkpt><trkpt lat="45.811473" lon="12.1323749"><ele>268.0</ele><time>2026-04-11T15:38:13.067Z</time></trkpt><trkpt lat="45.8115255" lon="12.1322616"><ele>268.0</ele><time>2026-04-11T15:38:14.058Z</time></trkpt><trkpt lat="45.8115736" lon="12.132145"><ele>268.0</ele><time>2026-04-11T15:38:15.062Z</time></trkpt><trkpt lat="45.8116187" lon="12.1320342"><ele>268.0</ele><time>2026-04-11T15:38:16.062Z</time></trkpt><trkpt lat="45.8116479" lon="12.1319338"><ele>268.0</ele><time>2026-04-11T15:38:17.066Z</time></trkpt><trkpt lat="45.8116877" lon="12.1317765"><ele>268.0</ele><time>2026-04-11T15:38:19.062Z</time></trkpt><trkpt lat="45.8117761" lon="12.1316681"><ele>268.0</ele><time>2026-04-11T15:38:21.066Z</time></trkpt><trkpt lat="45.8118403" lon="12.1316372"><ele>268.0</ele><time>2026-04-11T15:38:22.066Z</time></trkpt><trkpt lat="45.8119072" lon="12.1316119"><ele>268.0</ele><time>2026-04-11T15:38:23.068Z</time></trkpt><trkpt lat="45.8119844" lon="12.1315799"><ele>268.0</ele><time>2026-04-11T15:38:24.06Z</time></trkpt><trkpt lat="45.8120578" lon="12.1315429"><ele>268.0</ele><time>2026-04-11T15:38:25.061Z</time></trkpt><trkpt lat="45.8121294" lon="12.1315803"><ele>268.8333333333333</ele><time>2026-04-11T15:38:27.06Z</time></trkpt><trkpt lat="45.8122214" lon="12.1316865"><ele>269.66666666666663</ele><time>2026-04-11T15:38:29.061Z</time></trkpt><trkpt lat="45.8121955" lon="12.1317854"><ele>270.5</ele><time>2026-04-11T15:38:30.074Z</time></trkpt><trkpt lat="45.8121882" lon="12.1318973"><ele>271.3333333333333</ele><time>2026-04-11T15:38:31.063Z</time></trkpt><trkpt lat="45.8121799" lon="12.1320195"><ele>272.1666666666667</ele><time>2026-04-11T15:38:32.059Z</time></trkpt><trkpt lat="45.8121905" lon="12.1321518"><ele>273.0</ele><time>2026-04-11T15:38:33.062Z</time></trkpt><trkpt lat="45.8122005" lon="12.1322963"><ele>273.2</ele><time>2026-04-11T15:38:34.068Z</time></trkpt><trkpt lat="45.8122162" lon="12.1324312"><ele>273.4</ele><time>2026-04-11T15:38:35.067Z</time></trkpt><trkpt lat="45.8122418" lon="12.132571"><ele>273.59999999999997</ele><time>2026-04-11T15:38:36.066Z</time></trkpt><trkpt lat="45.8122751" lon="12.1327187"><ele>273.8</ele><time>2026-04-11T15:38:37.068Z</time></trkpt><trkpt lat="45.8123046" lon="12.1328767"><ele>274.0</ele><time>2026-04-11T15:38:38.066Z</time></trkpt><trkpt lat="45.8123442" lon="12.1330524"><ele>274.0</ele><time>2026-04-11T15:38:39.062Z</time></trkpt><trkpt lat="45.8123728" lon="12.1331739"><ele>274.0</ele><time>2026-04-11T15:38:40.064Z</time></trkpt><trkpt lat="45.8124011" lon="12.1332866"><ele>274.0</ele><time>2026-04-11T15:38:41.064Z</time></trkpt><trkpt lat="45.8124322" lon="12.1334255"><ele>274.0</ele><time>2026-04-11T15:38:43.087Z</time></trkpt><trkpt lat="45.8116187" lon="12.1320342"><ele>273.8333333333333</ele><time>2026-04-11T15:38:16.062Z</time></trkpt><trkpt lat="45.8116479" lon="12.1319338"><ele>273.66666666666663</ele><time>2026-04-11T15:38:17.066Z</time></trkpt><trkpt lat="45.8116877" lon="12.1317765"><ele>273.5</ele><time>2026-04-11T15:38:19.062Z</time></trkpt><trkpt lat="45.8117761" lon="12.1316681"><ele>273.3333333333333</ele><time>2026-04-11T15:38:21.066Z</time></trkpt><trkpt lat="45.8118403" lon="12.1316372"><ele>273.1666666666667</ele><time>2026-04-11T15:38:22.066Z</time></trkpt><trkpt lat="45.8119072" lon="12.1316119"><ele>273.0</ele><time>2026-04-11T15:38:23.068Z</time></trkpt><trkpt lat="45.8119844" lon="12.1315799"><ele>273.0</ele><time>2026-04-11T15:38:24.06Z</time></trkpt><trkpt lat="45.8120578" lon="12.1315429"><ele>273.0</ele><time>2026-04-11T15:38:25.061Z</time></trkpt><trkpt lat="45.8121294" lon="12.1315803"><ele>273.0</ele><time>2026-04-11T15:38:27.06Z</time></trkpt><trkpt lat="45.8122214" lon="12.1316865"><ele>273.0</ele><time>2026-04-11T15:38:29.061Z</time></trkpt><trkpt lat="45.8121955" lon="12.1317854"><ele>273.0</ele><time>2026-04-11T15:38:30.074Z</time></trkpt><trkpt lat="45.8121882" lon="12.1318973"><ele>273.0</ele><time>2026-04-11T15:38:31.063Z</time></trkpt><trkpt lat="45.8121799" lon="12.1320195"><ele>273.0</ele><time>2026-04-11T15:38:32.059Z</time></trkpt><trkpt lat="45.8121905" lon="12.1321518"><ele>273.0</ele><time>2026-04-11T15:38:33.062Z</time></trkpt><trkpt lat="45.8122005" lon="12.1322963"><ele>273.0</ele><time>2026-04-11T15:38:34.068Z</time></trkpt><trkpt lat="45.8122162" lon="12.1324312"><ele>273.0</ele><time>2026-04-11T15:38:35.067Z</time></trkpt><trkpt lat="45.8122418" lon="12.132571"><ele>273.0</ele><time>2026-04-11T15:38:36.066Z</time></trkpt><trkpt lat="45.8122751" lon="12.1327187"><ele>273.0</ele><time>2026-04-11T15:38:37.068Z</time></trkpt><trkpt lat="45.8123046" lon="12.1328767"><ele>273.0</ele><time>2026-04-11T15:38:38.066Z</time></trkpt><trkpt lat="45.8123442" lon="12.1330524"><ele>273.0</ele><time>2026-04-11T15:38:39.062Z</time></trkpt><trkpt lat="45.8123728" lon="12.1331739"><ele>273.0</ele><time>2026-04-11T15:38:40.064Z</time></trkpt><trkpt lat="45.8124011" lon="12.1332866"><ele>273.0</ele><time>2026-04-11T15:38:41.064Z</time></trkpt><trkpt lat="45.8124322" lon="12.1334255"><ele>273.0</ele><time>2026-04-11T15:38:43.087Z</time></trkpt><trkpt lat="45.8124975" lon="12.1335182"><ele>273.0</ele><time>2026-04-11T15:38:57.056Z</time></trkpt><trkpt lat="45.8125541" lon="12.1335902"><ele>273.0</ele><time>2026-04-11T15:39:00.054Z</time></trkpt><trkpt lat="45.8125625" lon="12.1337299"><ele>273.0</ele><time>2026-04-11T15:39:04.059Z</time></trkpt><trkpt lat="45.812517" lon="12.1338749"><ele>273.0</ele><time>2026-04-11T15:39:06.057Z</time></trkpt><trkpt lat="45.8124719" lon="12.1339768"><ele>273.2</ele><time>2026-04-11T15:39:08.066Z</time></trkpt><trkpt lat="45.8124402" lon="12.1340608"><ele>273.4</ele><time>2026-04-11T15:39:10.056Z</time></trkpt><trkpt lat="45.8123798" lon="12.1341187"><ele>273.59999999999997</ele><time>2026-04-11T15:39:12.058Z</time></trkpt><trkpt lat="45.812247" lon="12.1342243"><ele>273.8</ele><time>2026-04-11T15:39:14.068Z</time></trkpt><trkpt lat="45.8121588" lon="12.1342524"><ele>274.0</ele><time>2026-04-11T15:39:15.054Z</time></trkpt><trkpt lat="45.8120214" lon="12.1343496"><ele>274.0</ele><time>2026-04-11T15:39:16.057Z</time></trkpt><trkpt lat="45.8118982" lon="12.1344176"><ele>274.0</ele><time>2026-04-11T15:39:17.057Z</time></trkpt><trkpt lat="45.8117618" lon="12.1344978"><ele>274.0</ele><time>2026-04-11T15:39:18.06Z</time></trkpt><trkpt lat="45.811656" lon="12.1345451"><ele>274.0</ele><time>2026-04-11T15:39:19.055Z</time></trkpt><trkpt lat="45.8115478" lon="12.1346052"><ele>272.0</ele><time>2026-04-11T15:39:20.058Z</time></trkpt><trkpt lat="45.8114565" lon="12.1346563"><ele>270.0</ele><time>2026-04-11T15:39:21.061Z</time></trkpt><trkpt lat="45.8113711" lon="12.1347029"><ele>268.0</ele><time>2026-04-11T15:39:22.055Z</time></trkpt><trkpt lat="45.8112994" lon="12.1347354"><ele>266.0</ele><time>2026-04-11T15:39:23.069Z</time></trkpt><trkpt lat="45.8112338" lon="12.1347692"><ele>264.0</ele><time>2026-04-11T15:39:24.065Z</time></trkpt><trkpt lat="45.8111703" lon="12.1348238"><ele>262.0</ele><time>2026-04-11T15:39:25.06Z</time></trkpt><trkpt lat="45.8110819" lon="12.1348835"><ele>261.57142857142856</ele><time>2026-04-11T15:39:27.057Z</time></trkpt><trkpt lat="45.8110278" lon="12.1349463"><ele>261.14285714285717</ele><time>2026-04-11T15:39:28.056Z</time></trkpt><trkpt lat="45.8109789" lon="12.1350241"><ele>260.7142857142857</ele><time>2026-04-11T15:39:29.061Z</time></trkpt><trkpt lat="45.8109392" lon="12.1350955"><ele>260.2857142857143</ele><time>2026-04-11T15:39:30.061Z</time></trkpt><trkpt lat="45.8109008" lon="12.135194"><ele>259.8571428571429</ele><time>2026-04-11T15:39:31.066Z</time></trkpt><trkpt lat="45.8108628" lon="12.135301"><ele>259.42857142857144</ele><time>2026-04-11T15:39:32.062Z</time></trkpt><trkpt lat="45.8108261" lon="12.1354027"><ele>259.0</ele><time>2026-04-11T15:39:33.06Z</time></trkpt><trkpt lat="45.8107857" lon="12.1355062"><ele>258.85714285714283</ele><time>2026-04-11T15:39:34.06Z</time></trkpt><trkpt lat="45.8107502" lon="12.1355945"><ele>258.7142857142857</ele><time>2026-04-11T15:39:35.058Z</time></trkpt><trkpt lat="45.8107128" lon="12.1356929"><ele>258.57142857142856</ele><time>2026-04-11T15:39:36.063Z</time></trkpt><trkpt lat="45.8106724" lon="12.1357929"><ele>258.42857142857144</ele><time>2026-04-11T15:39:37.072Z</time></trkpt><trkpt lat="45.8106405" lon="12.1358734"><ele>258.2857142857143</ele><time>2026-04-11T15:39:38.068Z</time></trkpt><trkpt lat="45.8106083" lon="12.1359523"><ele>258.1428571428571</ele><time>2026-04-11T15:39:39.06Z</time></trkpt><trkpt lat="45.810577" lon="12.1360324"><ele>258.0</ele><time>2026-04-11T15:39:40.06Z</time></trkpt><trkpt lat="45.8105423" lon="12.1361093"><ele>257.4</ele><time>2026-04-11T15:39:41.062Z</time></trkpt><trkpt lat="45.8104708" lon="12.1362309"><ele>256.8</ele><time>2026-04-11T15:39:43.065Z</time></trkpt><trkpt lat="45.8104202" lon="12.1362923"><ele>256.2</ele><time>2026-04-11T15:39:44.065Z</time></trkpt><trkpt lat="45.8103657" lon="12.1363481"><ele>255.6</ele><time>2026-04-11T15:39:45.06Z</time></trkpt><trkpt lat="45.8102697" lon="12.1364666"><ele>255.0</ele><time>2026-04-11T15:39:47.056Z</time></trkpt><trkpt lat="45.8102117" lon="12.1366123"><ele>254.16666666666666</ele><time>2026-04-11T15:39:49.063Z</time></trkpt><trkpt lat="45.8102066" lon="12.1367933"><ele>253.33333333333331</ele><time>2026-04-11T15:39:51.055Z</time></trkpt><trkpt lat="45.8102274" lon="12.1369031"><ele>252.5</ele><time>2026-04-11T15:39:52.057Z</time></trkpt><trkpt lat="45.8102683" lon="12.1370125"><ele>251.66666666666666</ele><time>2026-04-11T15:39:53.06Z</time></trkpt><trkpt lat="45.810319" lon="12.1371022"><ele>250.83333333333331</ele><time>2026-04-11T15:39:54.072Z</time></trkpt><trkpt lat="45.8103609" lon="12.1371939"><ele>250.0</ele><time>2026-04-11T15:39:55.067Z</time></trkpt><trkpt lat="45.8103998" lon="12.1372831"><ele>250.0</ele><time>2026-04-11T15:39:56.066Z</time></trkpt><trkpt lat="45.8104312" lon="12.1373836"><ele>250.0</ele><time>2026-04-11T15:39:57.063Z</time></trkpt><trkpt lat="45.810447" lon="12.1374851"><ele>250.0</ele><time>2026-04-11T15:39:58.065Z</time></trkpt><trkpt lat="45.8104596" lon="12.1376014"><ele>250.0</ele><time>2026-04-11T15:39:59.066Z</time></trkpt><trkpt lat="45.8104643" lon="12.1377025"><ele>250.0</ele><time>2026-04-11T15:40:00.061Z</time></trkpt><trkpt lat="45.8104598" lon="12.1377974"><ele>250.0</ele><time>2026-04-11T15:40:01.066Z</time></trkpt><trkpt lat="45.8104497" lon="12.1378875"><ele>250.0</ele><time>2026-04-11T15:40:02.06Z</time></trkpt><trkpt lat="45.8104449" lon="12.1379794"><ele>249.0</ele><time>2026-04-11T15:40:03.064Z</time></trkpt><trkpt lat="45.8104167" lon="12.1381494"><ele>248.0</ele><time>2026-04-11T15:40:05.063Z</time></trkpt><trkpt lat="45.8103844" lon="12.1383029"><ele>247.0</ele><time>2026-04-11T15:40:07.062Z</time></trkpt><trkpt lat="45.8103679" lon="12.1384502"><ele>246.0</ele><time>2026-04-11T15:40:09.069Z</time></trkpt><trkpt lat="45.81037" lon="12.1385969"><ele>245.0</ele><time>2026-04-11T15:40:11.065Z</time></trkpt><trkpt lat="45.8104262" lon="12.1387452"><ele>244.14285714285714</ele><time>2026-04-11T15:40:13.062Z</time></trkpt><trkpt lat="45.8104732" lon="12.1388097"><ele>243.28571428571428</ele><time>2026-04-11T15:40:14.066Z</time></trkpt><trkpt lat="45.8105361" lon="12.1388696"><ele>242.42857142857144</ele><time>2026-04-11T15:40:15.063Z</time></trkpt><trkpt lat="45.8106046" lon="12.1389135"><ele>241.57142857142858</ele><time>2026-04-11T15:40:16.057Z</time></trkpt><trkpt lat="45.8106685" lon="12.1389549"><ele>240.71428571428572</ele><time>2026-04-11T15:40:17.059Z</time></trkpt><trkpt lat="45.8107372" lon="12.1389947"><ele>239.8571428571429</ele><time>2026-04-11T15:40:18.06Z</time></trkpt><trkpt lat="45.810795" lon="12.1390474"><ele>239.00000000000003</ele><time>2026-04-11T15:40:19.058Z</time></trkpt><trkpt lat="45.8108497" lon="12.1391102"><ele>238.66666666666669</ele><time>2026-04-11T15:40:20.062Z</time></trkpt><trkpt lat="45.8108916" lon="12.1392867"><ele>238.33333333333334</ele><time>2026-04-11T15:40:22.059Z</time></trkpt><trkpt lat="45.810896" lon="12.139391"><ele>238.0</ele><time>2026-04-11T15:40:23.062Z</time></trkpt><trkpt lat="45.8108944" lon="12.1395144"><ele>237.66666666666669</ele><time>2026-04-11T15:40:24.055Z</time></trkpt><trkpt lat="45.8108967" lon="12.1396319"><ele>237.33333333333334</ele><time>2026-04-11T15:40:25.056Z</time></trkpt><trkpt lat="45.8108979" lon="12.1397297"><ele>237.0</ele><time>2026-04-11T15:40:26.061Z</time></trkpt><trkpt lat="45.810896" lon="12.1398731"><ele>237.33333333333334</ele><time>2026-04-11T15:40:28.059Z</time></trkpt><trkpt lat="45.8109544" lon="12.1399543"><ele>237.66666666666669</ele><time>2026-04-11T15:40:40.054Z</time></trkpt><trkpt lat="45.8110193" lon="12.1399764"><ele>238.0</ele><time>2026-04-11T15:40:43.062Z</time></trkpt><trkpt lat="45.8111191" lon="12.1399879"><ele>238.33333333333334</ele><time>2026-04-11T15:40:49.054Z</time></trkpt><trkpt lat="45.8112114" lon="12.1399555"><ele>238.66666666666669</ele><time>2026-04-11T15:40:50.059Z</time></trkpt><trkpt lat="45.8112954" lon="12.1399459"><ele>239.0</ele><time>2026-04-11T15:40:51.054Z</time></trkpt><trkpt lat="45.8113871" lon="12.1399423"><ele>239.50000000000003</ele><time>2026-04-11T15:40:52.058Z</time></trkpt><trkpt lat="45.8114924" lon="12.1399613"><ele>240.0</ele><time>2026-04-11T15:40:53.071Z</time></trkpt><trkpt lat="45.8115649" lon="12.1399737"><ele>240.5</ele><time>2026-04-11T15:40:54.058Z</time></trkpt><trkpt lat="45.8116276" lon="12.1399831"><ele>241.0</ele><time>2026-04-11T15:40:55.058Z</time></trkpt><trkpt lat="45.8117271" lon="12.1400083"><ele>241.50000000000003</ele><time>2026-04-11T15:40:57.056Z</time></trkpt><trkpt lat="45.8117944" lon="12.140104"><ele>242.0</ele><time>2026-04-11T15:40:59.059Z</time></trkpt><trkpt lat="45.8118386" lon="12.1402445"><ele>242.0</ele><time>2026-04-11T15:41:01.069Z</time></trkpt><trkpt lat="45.8118287" lon="12.1404309"><ele>242.0</ele><time>2026-04-11T15:41:03.059Z</time></trkpt><trkpt lat="45.8118024" lon="12.1405459"><ele>242.0</ele><time>2026-04-11T15:41:04.055Z</time></trkpt><trkpt lat="45.8117623" lon="12.1406832"><ele>242.0</ele><time>2026-04-11T15:41:05.06Z</time></trkpt><trkpt lat="45.8117187" lon="12.1408177"><ele>242.0</ele><time>2026-04-11T15:41:06.062Z</time></trkpt><trkpt lat="45.8116834" lon="12.1409263"><ele>239.8</ele><time>2026-04-11T15:41:07.056Z</time></trkpt><trkpt lat="45.8116537" lon="12.141021"><ele>237.6</ele><time>2026-04-11T15:41:08.056Z</time></trkpt><trkpt lat="45.8116224" lon="12.1411116"><ele>235.40000000000003</ele><time>2026-04-11T15:41:09.059Z</time></trkpt><trkpt lat="45.8115478" lon="12.141235"><ele>233.20000000000002</ele><time>2026-04-11T15:41:11.067Z</time></trkpt><trkpt lat="45.8114346" lon="12.1413109"><ele>231.0</ele><time>2026-04-11T15:41:13.067Z</time></trkpt><trkpt lat="45.8113681" lon="12.1413651"><ele>231.0</ele><time>2026-04-11T15:41:14.053Z</time></trkpt><trkpt lat="45.8113092" lon="12.1414253"><ele>231.0</ele><time>2026-04-11T15:41:15.055Z</time></trkpt><trkpt lat="45.8112561" lon="12.1415081"><ele>231.0</ele><time>2026-04-11T15:41:16.058Z</time></trkpt><trkpt lat="45.8112221" lon="12.1416212"><ele>231.0</ele><time>2026-04-11T15:41:17.055Z</time></trkpt><trkpt lat="45.8111712" lon="12.1417046"><ele>231.0</ele><time>2026-04-11T15:41:18.058Z</time></trkpt><trkpt lat="45.8111322" lon="12.1418132"><ele>231.0</ele><time>2026-04-11T15:41:19.066Z</time></trkpt><trkpt lat="45.8111087" lon="12.1419395"><ele>230.8</ele><time>2026-04-11T15:41:20.062Z</time></trkpt><trkpt lat="45.811094" lon="12.1421098"><ele>230.60000000000002</ele><time>2026-04-11T15:41:21.058Z</time></trkpt><trkpt lat="45.8110673" lon="12.1422369"><ele>230.4</ele><time>2026-04-11T15:41:22.062Z</time></trkpt><trkpt lat="45.8110343" lon="12.1423932"><ele>230.2</ele><time>2026-04-11T15:41:23.055Z</time></trkpt><trkpt lat="45.8110032" lon="12.1425403"><ele>230.0</ele><time>2026-04-11T15:41:24.059Z</time></trkpt><trkpt lat="45.8109735" lon="12.1426975"><ele>229.66666666666669</ele><time>2026-04-11T15:41:25.06Z</time></trkpt><trkpt lat="45.8109398" lon="12.1428219"><ele>229.33333333333334</ele><time>2026-04-11T15:41:26.057Z</time></trkpt><trkpt lat="45.8109263" lon="12.1429641"><ele>229.0</ele><time>2026-04-11T15:41:27.055Z</time></trkpt><trkpt lat="45.8109113" lon="12.1430774"><ele>228.66666666666669</ele><time>2026-04-11T15:41:28.057Z</time></trkpt><trkpt lat="45.8108931" lon="12.143205"><ele>228.33333333333334</ele><time>2026-04-11T15:41:29.056Z</time></trkpt><trkpt lat="45.8108824" lon="12.1433041"><ele>228.0</ele><time>2026-04-11T15:41:30.055Z</time></trkpt><trkpt lat="45.8108771" lon="12.1434829"><ele>228.0</ele><time>2026-04-11T15:41:32.053Z</time></trkpt><trkpt lat="45.8108745" lon="12.1435775"><ele>227.99999999999997</ele><time>2026-04-11T15:41:33.06Z</time></trkpt><trkpt lat="45.8108814" lon="12.1436729"><ele>228.0</ele><time>2026-04-11T15:41:34.064Z</time></trkpt><trkpt lat="45.810924" lon="12.143759"><ele>228.0</ele><time>2026-04-11T15:41:35.065Z</time></trkpt><trkpt lat="45.8109445" lon="12.1438807"><ele>227.99999999999997</ele><time>2026-04-11T15:41:36.065Z</time></trkpt><trkpt lat="45.8109735" lon="12.1439813"><ele>228.0</ele><time>2026-04-11T15:41:37.066Z</time></trkpt><trkpt lat="45.8110091" lon="12.1440753"><ele>228.0</ele><time>2026-04-11T15:41:38.059Z</time></trkpt><trkpt lat="45.8110278" lon="12.1441781"><ele>227.33333333333334</ele><time>2026-04-11T15:41:39.056Z</time></trkpt><trkpt lat="45.8110513" lon="12.144276"><ele>226.66666666666669</ele><time>2026-04-11T15:41:40.054Z</time></trkpt><trkpt lat="45.8110638" lon="12.1443849"><ele>226.0</ele><time>2026-04-11T15:41:41.059Z</time></trkpt><trkpt lat="45.8110845" lon="12.1444713"><ele>225.33333333333334</ele><time>2026-04-11T15:41:42.066Z</time></trkpt><trkpt lat="45.8111157" lon="12.1446061"><ele>224.66666666666669</ele><time>2026-04-11T15:41:44.064Z</time></trkpt><trkpt lat="45.811196" lon="12.1447384"><ele>224.0</ele><time>2026-04-11T15:41:46.067Z</time></trkpt><trkpt lat="45.8112815" lon="12.1448715"><ele>222.0</ele><time>2026-04-11T15:41:48.061Z</time></trkpt><trkpt lat="45.8113662" lon="12.1449998"><ele>219.99999999999997</ele><time>2026-04-11T15:41:50.066Z</time></trkpt><trkpt lat="45.8114226" lon="12.1451558"><ele>217.99999999999997</ele><time>2026-04-11T15:41:52.063Z</time></trkpt><trkpt lat="45.8114378" lon="12.1452541"><ele>216.0</ele><time>2026-04-11T15:41:53.059Z</time></trkpt><trkpt lat="45.8114517" lon="12.1453593"><ele>214.0</ele><time>2026-04-11T15:41:54.062Z</time></trkpt><trkpt lat="45.8114584" lon="12.1454619"><ele>213.99999999999997</ele><time>2026-04-11T15:41:55.056Z</time></trkpt><trkpt lat="45.8114662" lon="12.145563"><ele>214.0</ele><time>2026-04-11T15:41:56.055Z</time></trkpt><trkpt lat="45.8114671" lon="12.1456535"><ele>214.0</ele><time>2026-04-11T15:41:57.063Z</time></trkpt><trkpt lat="45.8114479" lon="12.1458312"><ele>214.0</ele><time>2026-04-11T15:41:59.06Z</time></trkpt><trkpt lat="45.8114193" lon="12.1459763"><ele>213.99999999999997</ele><time>2026-04-11T15:42:01.059Z</time></trkpt><trkpt lat="45.8114017" lon="12.1460707"><ele>214.0</ele><time>2026-04-11T15:42:03.063Z</time></trkpt><trkpt lat="45.8114529" lon="12.146148"><ele>214.0</ele><time>2026-04-11T15:42:07.055Z</time></trkpt><trkpt lat="45.811539" lon="12.1461278"><ele>213.99999999999997</ele><time>2026-04-11T15:42:10.068Z</time></trkpt><trkpt lat="45.8115658" lon="12.1460231"><ele>213.99999999999997</ele><time>2026-04-11T15:42:12.065Z</time></trkpt><trkpt lat="45.8115914" lon="12.1458498"><ele>214.0</ele><time>2026-04-11T15:42:14.063Z</time></trkpt><trkpt lat="45.8116424" lon="12.1457041"><ele>214.0</ele><time>2026-04-11T15:42:16.068Z</time></trkpt><trkpt lat="45.8117455" lon="12.1456278"><ele>214.00000000000003</ele><time>2026-04-11T15:42:18.057Z</time></trkpt><trkpt lat="45.8118164" lon="12.145618"><ele>214.0</ele><time>2026-04-11T15:42:19.053Z</time></trkpt><trkpt lat="45.8118895" lon="12.1456296"><ele>214.0</ele><time>2026-04-11T15:42:20.057Z</time></trkpt><trkpt lat="45.8119571" lon="12.1456462"><ele>214.0</ele><time>2026-04-11T15:42:21.056Z</time></trkpt><trkpt lat="45.8120157" lon="12.1456858"><ele>214.0</ele><time>2026-04-11T15:42:22.054Z</time></trkpt><trkpt lat="45.8120966" lon="12.1457228"><ele>214.00000000000003</ele><time>2026-04-11T15:42:23.06Z</time></trkpt><trkpt lat="45.8121613" lon="12.1457552"><ele>214.0</ele><time>2026-04-11T15:42:24.067Z</time></trkpt><trkpt lat="45.812227" lon="12.1457324"><ele>214.83333333333331</ele><time>2026-04-11T15:42:25.06Z</time></trkpt><trkpt lat="45.8122956" lon="12.1456816"><ele>215.66666666666666</ele><time>2026-04-11T15:42:26.054Z</time></trkpt><trkpt lat="45.8123633" lon="12.1456226"><ele>216.5</ele><time>2026-04-11T15:42:27.059Z</time></trkpt><trkpt lat="45.8124426" lon="12.1455627"><ele>217.33333333333331</ele><time>2026-04-11T15:42:28.058Z</time></trkpt><trkpt lat="45.8125034" lon="12.1455363"><ele>218.16666666666666</ele><time>2026-04-11T15:42:29.054Z</time></trkpt><trkpt lat="45.8126249" lon="12.1455401"><ele>219.0</ele><time>2026-04-11T15:42:31.063Z</time></trkpt><trkpt lat="45.8127184" lon="12.1456287"><ele>218.33333333333334</ele><time>2026-04-11T15:42:33.071Z</time></trkpt><trkpt lat="45.8127528" lon="12.1457167"><ele>217.66666666666669</ele><time>2026-04-11T15:42:34.057Z</time></trkpt><trkpt lat="45.8127918" lon="12.1458284"><ele>217.0</ele><time>2026-04-11T15:42:35.058Z</time></trkpt><trkpt lat="45.8128225" lon="12.1459359"><ele>216.33333333333334</ele><time>2026-04-11T15:42:36.061Z</time></trkpt><trkpt lat="45.8128534" lon="12.1460291"><ele>215.66666666666669</ele><time>2026-04-11T15:42:37.058Z</time></trkpt><trkpt lat="45.8128956" lon="12.1461069"><ele>215.0</ele><time>2026-04-11T15:42:38.052Z</time></trkpt><trkpt lat="45.8129519" lon="12.1461765"><ele>215.0</ele><time>2026-04-11T15:42:39.054Z</time></trkpt><trkpt lat="45.8130146" lon="12.1462435"><ele>215.0</ele><time>2026-04-11T15:42:40.06Z</time></trkpt><trkpt lat="45.813123" lon="12.1463159"><ele>215.0</ele><time>2026-04-11T15:42:42.066Z</time></trkpt><trkpt lat="45.8132268" lon="12.1463701"><ele>215.0</ele><time>2026-04-11T15:42:44.062Z</time></trkpt><trkpt lat="45.8133409" lon="12.1464057"><ele>215.0</ele><time>2026-04-11T15:42:46.06Z</time></trkpt><trkpt lat="45.8134174" lon="12.1464244"><ele>215.16666666666669</ele><time>2026-04-11T15:42:47.057Z</time></trkpt><trkpt lat="45.8135546" lon="12.1464321"><ele>215.33333333333334</ele><time>2026-04-11T15:42:48.063Z</time></trkpt><trkpt lat="45.8136271" lon="12.1464331"><ele>215.5</ele><time>2026-04-11T15:42:49.062Z</time></trkpt><trkpt lat="45.8136907" lon="12.1464594"><ele>215.66666666666669</ele><time>2026-04-11T15:43:30.078Z</time></trkpt><trkpt lat="45.8137665" lon="12.1464802"><ele>215.83333333333334</ele><time>2026-04-11T15:43:32.057Z</time></trkpt><trkpt lat="45.8138236" lon="12.1465205"><ele>216.0</ele><time>2026-04-11T15:43:40.065Z</time></trkpt><trkpt lat="45.8138929" lon="12.1464939"><ele>216.0</ele><time>2026-04-11T15:43:42.063Z</time></trkpt><trkpt lat="45.8139642" lon="12.1464062"><ele>216.0</ele><time>2026-04-11T15:43:44.063Z</time></trkpt><trkpt lat="45.814058" lon="12.1463589"><ele>216.0</ele><time>2026-04-11T15:43:47.055Z</time></trkpt><trkpt lat="45.8141263" lon="12.1463536"><ele>216.0</ele><time>2026-04-11T15:43:48.06Z</time></trkpt><trkpt lat="45.8142053" lon="12.1463499"><ele>216.0</ele><time>2026-04-11T15:43:49.052Z</time></trkpt><trkpt lat="45.8142879" lon="12.1463419"><ele>216.0</ele><time>2026-04-11T15:43:50.062Z</time></trkpt><trkpt lat="45.8143776" lon="12.146331"><ele>215.8</ele><time>2026-04-11T15:43:51.06Z</time></trkpt><trkpt lat="45.8144725" lon="12.1463224"><ele>215.60000000000002</ele><time>2026-04-11T15:43:52.065Z</time></trkpt><trkpt lat="45.8145849" lon="12.1463163"><ele>215.4</ele><time>2026-04-11T15:43:53.058Z</time></trkpt><trkpt lat="45.8147102" lon="12.1463095"><ele>215.2</ele><time>2026-04-11T15:43:54.057Z</time></trkpt><trkpt lat="45.8148186" lon="12.1463017"><ele>215.0</ele><time>2026-04-11T15:43:55.063Z</time></trkpt><trkpt lat="45.8149083" lon="12.1463018"><ele>215.00000000000003</ele><time>2026-04-11T15:43:56.055Z</time></trkpt><trkpt lat="45.8150343" lon="12.146268"><ele>215.0</ele><time>2026-04-11T15:43:58.066Z</time></trkpt><trkpt lat="45.8151474" lon="12.1463102"><ele>215.0</ele><time>2026-04-11T15:44:00.061Z</time></trkpt><trkpt lat="45.8152046" lon="12.1463638"><ele>215.0</ele><time>2026-04-11T15:44:01.068Z</time></trkpt><trkpt lat="45.8152524" lon="12.1464243"><ele>215.00000000000003</ele><time>2026-04-11T15:44:02.061Z</time></trkpt><trkpt lat="45.8153071" lon="12.1464733"><ele>215.0</ele><time>2026-04-11T15:44:03.062Z</time></trkpt><trkpt lat="45.8154225" lon="12.1465203"><ele>215.83333333333334</ele><time>2026-04-11T15:44:05.064Z</time></trkpt><trkpt lat="45.8154939" lon="12.1465081"><ele>216.66666666666669</ele><time>2026-04-11T15:44:06.063Z</time></trkpt><trkpt lat="45.8155969" lon="12.1464375"><ele>217.5</ele><time>2026-04-11T15:44:08.059Z</time></trkpt><trkpt lat="45.8156455" lon="12.1463225"><ele>218.33333333333331</ele><time>2026-04-11T15:44:10.059Z</time></trkpt><trkpt lat="45.8156687" lon="12.1462345"><ele>219.16666666666666</ele><time>2026-04-11T15:44:11.071Z</time></trkpt><trkpt lat="45.8156882" lon="12.1461063"><ele>220.0</ele><time>2026-04-11T15:44:12.061Z</time></trkpt><trkpt lat="45.8157206" lon="12.146009"><ele>219.99999999999997</ele><time>2026-04-11T15:44:13.058Z</time></trkpt><trkpt lat="45.8157624" lon="12.1459305"><ele>220.0</ele><time>2026-04-11T15:44:14.067Z</time></trkpt><trkpt lat="45.8158161" lon="12.1458556"><ele>220.0</ele><time>2026-04-11T15:44:15.056Z</time></trkpt><trkpt lat="45.8158768" lon="12.1457941"><ele>220.0</ele><time>2026-04-11T15:44:16.06Z</time></trkpt><trkpt lat="45.8159301" lon="12.1457221"><ele>220.0</ele><time>2026-04-11T15:44:17.061Z</time></trkpt><trkpt lat="45.8160139" lon="12.1457007"><ele>219.99999999999997</ele><time>2026-04-11T15:44:18.06Z</time></trkpt><trkpt lat="45.8160781" lon="12.1456642"><ele>220.0</ele><time>2026-04-11T15:44:19.056Z</time></trkpt><trkpt lat="45.8161964" lon="12.1456445"><ele>220.16666666666666</ele><time>2026-04-11T15:44:21.062Z</time></trkpt><trkpt lat="45.8163011" lon="12.145673"><ele>220.33333333333331</ele><time>2026-04-11T15:44:23.058Z</time></trkpt><trkpt lat="45.8163829" lon="12.1457321"><ele>220.5</ele><time>2026-04-11T15:44:24.065Z</time></trkpt><trkpt lat="45.816456" lon="12.1457844"><ele>220.66666666666669</ele><time>2026-04-11T15:44:25.058Z</time></trkpt><trkpt lat="45.8165266" lon="12.1458554"><ele>220.83333333333334</ele><time>2026-04-11T15:44:26.056Z</time></trkpt><trkpt lat="45.8166014" lon="12.1459067"><ele>221.0</ele><time>2026-04-11T15:44:27.054Z</time></trkpt><trkpt lat="45.8166752" lon="12.1459494"><ele>221.00000000000003</ele><time>2026-04-11T15:44:28.06Z</time></trkpt><trkpt lat="45.8167635" lon="12.1459557"><ele>221.0</ele><time>2026-04-11T15:44:29.059Z</time></trkpt><trkpt lat="45.8168515" lon="12.1459641"><ele>221.0</ele><time>2026-04-11T15:44:30.058Z</time></trkpt><trkpt lat="45.8169355" lon="12.1459551"><ele>221.0</ele><time>2026-04-11T15:44:31.067Z</time></trkpt><trkpt lat="45.8170052" lon="12.1459302"><ele>221.00000000000003</ele><time>2026-04-11T15:44:32.065Z</time></trkpt><trkpt lat="45.8170739" lon="12.1458875"><ele>221.0</ele><time>2026-04-11T15:44:33.055Z</time></trkpt><trkpt lat="45.8171525" lon="12.1458351"><ele>219.83333333333334</ele><time>2026-04-11T15:44:34.053Z</time></trkpt><trkpt lat="45.8172081" lon="12.1457921"><ele>218.66666666666669</ele><time>2026-04-11T15:44:35.062Z</time></trkpt><trkpt lat="45.817285" lon="12.1457475"><ele>217.5</ele><time>2026-04-11T15:44:37.054Z</time></trkpt><trkpt lat="45.8173338" lon="12.1456578"><ele>216.33333333333331</ele><time>2026-04-11T15:45:11.056Z</time></trkpt><trkpt lat="45.8173449" lon="12.1454815"><ele>215.16666666666666</ele><time>2026-04-11T15:45:13.063Z</time></trkpt><trkpt lat="45.8173306" lon="12.1453737"><ele>214.0</ele><time>2026-04-11T15:45:14.06Z</time></trkpt><trkpt lat="45.817318" lon="12.1452541"><ele>213.99999999999997</ele><time>2026-04-11T15:45:15.061Z</time></trkpt><trkpt lat="45.8173049" lon="12.1451289"><ele>214.0</ele><time>2026-04-11T15:45:16.055Z</time></trkpt><trkpt lat="45.8172845" lon="12.1450167"><ele>214.0</ele><time>2026-04-11T15:45:17.063Z</time></trkpt><trkpt lat="45.8172653" lon="12.1449226"><ele>214.0</ele><time>2026-04-11T15:45:18.065Z</time></trkpt><trkpt lat="45.8172243" lon="12.1447824"><ele>213.99999999999997</ele><time>2026-04-11T15:45:20.064Z</time></trkpt><trkpt lat="45.8171828" lon="12.1446727"><ele>214.0</ele><time>2026-04-11T15:45:22.064Z</time></trkpt><trkpt lat="45.8171308" lon="12.14453"><ele>215.42857142857144</ele><time>2026-04-11T15:45:24.07Z</time></trkpt><trkpt lat="45.8170957" lon="12.1444481"><ele>216.85714285714286</ele><time>2026-04-11T15:45:25.064Z</time></trkpt><trkpt lat="45.8170592" lon="12.1443613"><ele>218.28571428571428</ele><time>2026-04-11T15:45:26.057Z</time></trkpt><trkpt lat="45.8170333" lon="12.1442651"><ele>219.71428571428572</ele><time>2026-04-11T15:45:27.063Z</time></trkpt><trkpt lat="45.8170195" lon="12.1441646"><ele>221.14285714285714</ele><time>2026-04-11T15:45:28.064Z</time></trkpt><trkpt lat="45.8170171" lon="12.1440614"><ele>222.57142857142858</ele><time>2026-04-11T15:45:29.067Z</time></trkpt><trkpt lat="45.8170171" lon="12.1439635"><ele>224.0</ele><time>2026-04-11T15:45:30.06Z</time></trkpt><trkpt lat="45.8170287" lon="12.1438562"><ele>224.50000000000003</ele><time>2026-04-11T15:45:31.059Z</time></trkpt><trkpt lat="45.8170384" lon="12.1437484"><ele>225.0</ele><time>2026-04-11T15:45:32.064Z</time></trkpt><trkpt lat="45.8170511" lon="12.1436396"><ele>225.5</ele><time>2026-04-11T15:45:33.062Z</time></trkpt><trkpt lat="45.817052" lon="12.1435338"><ele>226.0</ele><time>2026-04-11T15:45:34.057Z</time></trkpt><trkpt lat="45.8170516" lon="12.1434373"><ele>226.50000000000003</ele><time>2026-04-11T15:45:35.07Z</time></trkpt><trkpt lat="45.8170312" lon="12.1432663"><ele>227.0</ele><time>2026-04-11T15:45:37.054Z</time></trkpt><trkpt lat="45.817021" lon="12.1431441"><ele>227.50000000000003</ele><time>2026-04-11T15:45:39.053Z</time></trkpt><trkpt lat="45.8170043" lon="12.1430451"><ele>228.0</ele><time>2026-04-11T15:46:58.058Z</time></trkpt><trkpt lat="45.8170244" lon="12.1429537"><ele>228.5</ele><time>2026-04-11T15:47:02.062Z</time></trkpt><trkpt lat="45.8170612" lon="12.142879"><ele>229.0</ele><time>2026-04-11T15:47:07.061Z</time></trkpt><trkpt lat="45.8171111" lon="12.1427543"><ele>229.50000000000003</ele><time>2026-04-11T15:47:27.057Z</time></trkpt><trkpt lat="45.8171595" lon="12.1426867"><ele>230.0</ele><time>2026-04-11T15:47:28.07Z</time></trkpt><trkpt lat="45.8172182" lon="12.1426058"><ele>230.0</ele><time>2026-04-11T15:47:29.053Z</time></trkpt><trkpt lat="45.81728" lon="12.1425042"><ele>230.0</ele><time>2026-04-11T15:47:30.06Z</time></trkpt><trkpt lat="45.817342" lon="12.1424018"><ele>230.0</ele><time>2026-04-11T15:47:31.052Z</time></trkpt><trkpt lat="45.8174142" lon="12.1422856"><ele>230.0</ele><time>2026-04-11T15:47:32.069Z</time></trkpt><trkpt lat="45.8174968" lon="12.1421577"><ele>230.0</ele><time>2026-04-11T15:47:33.065Z</time></trkpt><trkpt lat="45.8170244" lon="12.1429537"><ele>230.00000000000003</ele><time>2026-04-11T15:47:02.062Z</time></trkpt><trkpt lat="45.8170612" lon="12.142879"><ele>230.0</ele><time>2026-04-11T15:47:07.061Z</time></trkpt><trkpt lat="45.8171111" lon="12.1427543"><ele>230.0</ele><time>2026-04-11T15:47:27.057Z</time></trkpt><trkpt lat="45.8171595" lon="12.1426867"><ele>230.0</ele><time>2026-04-11T15:47:28.07Z</time></trkpt><trkpt lat="45.8172182" lon="12.1426058"><ele>230.00000000000003</ele><time>2026-04-11T15:47:29.053Z</time></trkpt><trkpt lat="45.81728" lon="12.1425042"><ele>230.0</ele><time>2026-04-11T15:47:30.06Z</time></trkpt><trkpt lat="45.817342" lon="12.1424018"><ele>231.0</ele><time>2026-04-11T15:47:31.052Z</time></trkpt><trkpt lat="45.8174142" lon="12.1422856"><ele>232.0</ele><time>2026-04-11T15:47:32.069Z</time></trkpt><trkpt lat="45.8174968" lon="12.1421577"><ele>233.0</ele><time>2026-04-11T15:47:33.065Z</time></trkpt><trkpt lat="45.8175752" lon="12.1420254"><ele>234.0</ele><time>2026-04-11T15:47:34.057Z</time></trkpt><trkpt lat="45.8176557" lon="12.1418985"><ele>234.25</ele><time>2026-04-11T15:47:35.056Z</time></trkpt><trkpt lat="45.8177355" lon="12.141771"><ele>234.5</ele><time>2026-04-11T15:47:36.061Z</time></trkpt><trkpt lat="45.8178175" lon="12.1416406"><ele>234.75</ele><time>2026-04-11T15:47:37.067Z</time></trkpt><trkpt lat="45.8178936" lon="12.1415176"><ele>235.0</ele><time>2026-04-11T15:47:38.058Z</time></trkpt><trkpt lat="45.8179717" lon="12.1413919"><ele>234.2</ele><time>2026-04-11T15:47:39.053Z</time></trkpt><trkpt lat="45.8180476" lon="12.1412692"><ele>233.4</ele><time>2026-04-11T15:47:40.066Z</time></trkpt><trkpt lat="45.8181211" lon="12.1411493"><ele>232.60000000000002</ele><time>2026-04-11T15:47:41.058Z</time></trkpt><trkpt lat="45.8181912" lon="12.141027"><ele>231.8</ele><time>2026-04-11T15:47:42.077Z</time></trkpt><trkpt lat="45.8182512" lon="12.1408969"><ele>231.0</ele><time>2026-04-11T15:47:43.06Z</time></trkpt><trkpt lat="45.8182968" lon="12.1407553"><ele>230.4</ele><time>2026-04-11T15:47:44.066Z</time></trkpt><trkpt lat="45.8183249" lon="12.1406017"><ele>229.8</ele><time>2026-04-11T15:47:45.057Z</time></trkpt><trkpt lat="45.8183322" lon="12.1404433"><ele>229.20000000000002</ele><time>2026-04-11T15:47:46.061Z</time></trkpt><trkpt lat="45.8183262" lon="12.1402857"><ele>228.60000000000002</ele><time>2026-04-11T15:47:47.063Z</time></trkpt><trkpt lat="45.8183193" lon="12.1401286"><ele>228.0</ele><time>2026-04-11T15:47:48.064Z</time></trkpt><trkpt lat="45.8183061" lon="12.1399721"><ele>229.0</ele><time>2026-04-11T15:47:49.063Z</time></trkpt><trkpt lat="45.818287" lon="12.1398196"><ele>230.0</ele><time>2026-04-11T15:47:50.057Z</time></trkpt><trkpt lat="45.818261" lon="12.1396712"><ele>231.0</ele><time>2026-04-11T15:47:51.054Z</time></trkpt><trkpt lat="45.8182323" lon="12.139533"><ele>232.0</ele><time>2026-04-11T15:47:52.067Z</time></trkpt><trkpt lat="45.8182016" lon="12.1393976"><ele>233.0</ele><time>2026-04-11T15:47:53.061Z</time></trkpt><trkpt lat="45.818167" lon="12.1392593"><ele>233.00000000000003</ele><time>2026-04-11T15:47:54.067Z</time></trkpt><trkpt lat="45.8181392" lon="12.139125"><ele>233.0</ele><time>2026-04-11T15:47:55.058Z</time></trkpt><trkpt lat="45.8181201" lon="12.1390136"><ele>233.0</ele><time>2026-04-11T15:47:56.062Z</time></trkpt><trkpt lat="45.8181004" lon="12.1389043"><ele>233.0</ele><time>2026-04-11T15:47:57.064Z</time></trkpt><trkpt lat="45.8180782" lon="12.1387974"><ele>233.00000000000003</ele><time>2026-04-11T15:47:58.067Z</time></trkpt><trkpt lat="45.8180515" lon="12.1386889"><ele>233.0</ele><time>2026-04-11T15:47:59.068Z</time></trkpt><trkpt lat="45.8180221" lon="12.1385669"><ele>234.4</ele><time>2026-04-11T15:48:00.057Z</time></trkpt><trkpt lat="45.8179862" lon="12.1384361"><ele>235.8</ele><time>2026-04-11T15:48:01.058Z</time></trkpt><trkpt lat="45.8179486" lon="12.1382992"><ele>237.2</ele><time>2026-04-11T15:48:02.062Z</time></trkpt><trkpt lat="45.8179111" lon="12.138171"><ele>238.6</ele><time>2026-04-11T15:48:03.065Z</time></trkpt><trkpt lat="45.8178754" lon="12.1380376"><ele>240.0</ele><time>2026-04-11T15:48:04.06Z</time></trkpt><trkpt lat="45.8178408" lon="12.1379068"><ele>241.2</ele><time>2026-04-11T15:48:05.062Z</time></trkpt><trkpt lat="45.8178133" lon="12.13777"><ele>242.4</ele><time>2026-04-11T15:48:06.058Z</time></trkpt><trkpt lat="45.8177943" lon="12.1376308"><ele>243.60000000000002</ele><time>2026-04-11T15:48:07.059Z</time></trkpt><trkpt lat="45.8177811" lon="12.137481"><ele>244.8</ele><time>2026-04-11T15:48:08.057Z</time></trkpt><trkpt lat="45.8177752" lon="12.137327"><ele>246.0</ele><time>2026-04-11T15:48:09.067Z</time></trkpt><trkpt lat="45.8177799" lon="12.1371668"><ele>247.0</ele><time>2026-04-11T15:48:10.065Z</time></trkpt><trkpt lat="45.817793" lon="12.1370008"><ele>248.0</ele><time>2026-04-11T15:48:11.056Z</time></trkpt><trkpt lat="45.8178111" lon="12.1368322"><ele>249.0</ele><time>2026-04-11T15:48:12.054Z</time></trkpt><trkpt lat="45.8178256" lon="12.1366596"><ele>250.0</ele><time>2026-04-11T15:48:13.061Z</time></trkpt><trkpt lat="45.8178278" lon="12.1364785"><ele>250.0</ele><time>2026-04-11T15:48:14.059Z</time></trkpt><trkpt lat="45.8178074" lon="12.1362987"><ele>250.0</ele><time>2026-04-11T15:48:15.061Z</time></trkpt><trkpt lat="45.8177708" lon="12.136122"><ele>250.0</ele><time>2026-04-11T15:48:16.064Z</time></trkpt><trkpt lat="45.8177248" lon="12.1359452"><ele>250.0</ele><time>2026-04-11T15:48:17.062Z</time></trkpt><trkpt lat="45.8176717" lon="12.135763"><ele>253.5</ele><time>2026-04-11T15:48:18.058Z</time></trkpt><trkpt lat="45.8176136" lon="12.1355794"><ele>257.0</ele><time>2026-04-11T15:48:19.06Z</time></trkpt><trkpt lat="45.8175521" lon="12.1353885"><ele>260.5</ele><time>2026-04-11T15:48:20.058Z</time></trkpt><trkpt lat="45.8174853" lon="12.1351947"><ele>264.0</ele><time>2026-04-11T15:48:21.06Z</time></trkpt><trkpt lat="45.8174072" lon="12.1349998"><ele>263.0</ele><time>2026-04-11T15:48:22.056Z</time></trkpt><trkpt lat="45.8173322" lon="12.1347984"><ele>262.0</ele><time>2026-04-11T15:48:23.065Z</time></trkpt><trkpt lat="45.8172582" lon="12.134596"><ele>261.0</ele><time>2026-04-11T15:48:24.054Z</time></trkpt><trkpt lat="45.8171955" lon="12.1343847"><ele>261.0</ele><time>2026-04-11T15:48:25.055Z</time></trkpt><trkpt lat="45.8171408" lon="12.1341643"><ele>261.0</ele><time>2026-04-11T15:48:26.054Z</time></trkpt><trkpt lat="45.8170865" lon="12.1339439"><ele>261.0</ele><time>2026-04-11T15:48:27.063Z</time></trkpt><trkpt lat="45.8170285" lon="12.1337316"><ele>261.0</ele><time>2026-04-11T15:48:28.061Z</time></trkpt><trkpt lat="45.8169679" lon="12.1335314"><ele>261.0</ele><time>2026-04-11T15:48:29.056Z</time></trkpt><trkpt lat="45.8168968" lon="12.1333499"><ele>261.0</ele><time>2026-04-11T15:48:30.065Z</time></trkpt><trkpt lat="45.8168201" lon="12.1331952"><ele>261.0</ele><time>2026-04-11T15:48:31.066Z</time></trkpt><trkpt lat="45.8167356" lon="12.1330623"><ele>262.5</ele><time>2026-04-11T15:48:32.058Z</time></trkpt><trkpt lat="45.8166478" lon="12.1329483"><ele>264.0</ele><time>2026-04-11T15:48:33.064Z</time></trkpt><trkpt lat="45.8165549" lon="12.132845"><ele>265.5</ele><time>2026-04-11T15:48:34.061Z</time></trkpt><trkpt lat="45.8164648" lon="12.1327519"><ele>267.0</ele><time>2026-04-11T15:48:35.062Z</time></trkpt><trkpt lat="45.8163773" lon="12.1326656"><ele>267.0</ele><time>2026-04-11T15:48:36.064Z</time></trkpt><trkpt lat="45.8162972" lon="12.1325905"><ele>267.0</ele><time>2026-04-11T15:48:37.055Z</time></trkpt><trkpt lat="45.8162334" lon="12.1325288"><ele>267.0</ele><time>2026-04-11T15:48:38.056Z</time></trkpt><trkpt lat="45.8161415" lon="12.1324778"><ele>267.0</ele><time>2026-04-11T15:48:40.058Z</time></trkpt><trkpt lat="45.8160697" lon="12.1325192"><ele>267.0</ele><time>2026-04-11T15:48:43.054Z</time></trkpt><trkpt lat="45.8159815" lon="12.1325647"><ele>267.0</ele><time>2026-04-11T15:49:13.059Z</time></trkpt><trkpt lat="45.8158573" lon="12.1325795"><ele>267.1666666666667</ele><time>2026-04-11T15:49:15.059Z</time></trkpt><trkpt lat="45.8157864" lon="12.13262"><ele>267.3333333333333</ele><time>2026-04-11T15:49:16.064Z</time></trkpt><trkpt lat="45.815717" lon="12.1326738"><ele>267.5</ele><time>2026-04-11T15:49:17.063Z</time></trkpt><trkpt lat="45.8156578" lon="12.1327576"><ele>267.66666666666663</ele><time>2026-04-11T15:49:18.063Z</time></trkpt><trkpt lat="45.8155943" lon="12.1328826"><ele>267.8333333333333</ele><time>2026-04-11T15:49:19.059Z</time></trkpt><trkpt lat="45.8155396" lon="12.1329604"><ele>268.0</ele><time>2026-04-11T15:49:20.061Z</time></trkpt><trkpt lat="45.8154882" lon="12.133032"><ele>268.0</ele><time>2026-04-11T15:49:21.065Z</time></trkpt><trkpt lat="45.8154341" lon="12.1330847"><ele>268.0</ele><time>2026-04-11T15:49:22.061Z</time></trkpt><trkpt lat="45.815349" lon="12.1331366"><ele>268.0</ele><time>2026-04-11T15:49:23.056Z</time></trkpt><trkpt lat="45.81527" lon="12.1331729"><ele>268.0</ele><time>2026-04-11T15:49:24.057Z</time></trkpt><trkpt lat="45.8151686" lon="12.133269"><ele>268.0</ele><time>2026-04-11T15:49:25.053Z</time></trkpt><trkpt lat="45.8150893" lon="12.1333545"><ele>268.25</ele><time>2026-04-11T15:49:26.058Z</time></trkpt><trkpt lat="45.8150025" lon="12.13346"><ele>268.5</ele><time>2026-04-11T15:49:27.059Z</time></trkpt><trkpt lat="45.8149033" lon="12.1335856"><ele>268.75</ele><time>2026-04-11T15:49:28.058Z</time></trkpt><trkpt lat="45.8148194" lon="12.1336913"><ele>269.0</ele><time>2026-04-11T15:49:29.058Z</time></trkpt><trkpt lat="45.8147494" lon="12.1337937"><ele>269.0</ele><time>2026-04-11T15:49:30.063Z</time></trkpt><trkpt lat="45.8146689" lon="12.1339042"><ele>269.0</ele><time>2026-04-11T15:49:31.053Z</time></trkpt><trkpt lat="45.8145782" lon="12.1340187"><ele>269.0</ele><time>2026-04-11T15:49:32.051Z</time></trkpt><trkpt lat="45.8144868" lon="12.1341329"><ele>269.0</ele><time>2026-04-11T15:49:33.061Z</time></trkpt><trkpt lat="45.8144055" lon="12.1342332"><ele>268.14285714285717</ele><time>2026-04-11T15:49:34.057Z</time></trkpt><trkpt lat="45.8143424" lon="12.1343082"><ele>267.28571428571433</ele><time>2026-04-11T15:49:35.061Z</time></trkpt><trkpt lat="45.8142851" lon="12.1343734"><ele>266.42857142857144</ele><time>2026-04-11T15:49:36.064Z</time></trkpt><trkpt lat="45.8142293" lon="12.1344455"><ele>265.57142857142856</ele><time>2026-04-11T15:49:37.062Z</time></trkpt><trkpt lat="45.8141743" lon="12.134516"><ele>264.71428571428567</ele><time>2026-04-11T15:49:38.056Z</time></trkpt><trkpt lat="45.8141196" lon="12.1345869"><ele>263.85714285714283</ele><time>2026-04-11T15:49:39.062Z</time></trkpt><trkpt lat="45.8140677" lon="12.1346517"><ele>263.0</ele><time>2026-04-11T15:49:40.059Z</time></trkpt><trkpt lat="45.8140166" lon="12.1347227"><ele>262.83333333333337</ele><time>2026-04-11T15:49:41.059Z</time></trkpt><trkpt lat="45.8139613" lon="12.1347744"><ele>262.6666666666667</ele><time>2026-04-11T15:49:42.061Z</time></trkpt><trkpt lat="45.8139022" lon="12.1348371"><ele>262.5</ele><time>2026-04-11T15:49:43.061Z</time></trkpt><trkpt lat="45.8138387" lon="12.1348952"><ele>262.3333333333333</ele><time>2026-04-11T15:49:44.059Z</time></trkpt><trkpt lat="45.8137793" lon="12.1349389"><ele>262.16666666666663</ele><time>2026-04-11T15:49:45.052Z</time></trkpt><trkpt lat="45.8136595" lon="12.1349834"><ele>262.0</ele><time>2026-04-11T15:49:47.059Z</time></trkpt><trkpt lat="45.8135349" lon="12.1349813"><ele>263.4</ele><time>2026-04-11T15:49:49.056Z</time></trkpt><trkpt lat="45.8134685" lon="12.134965"><ele>264.79999999999995</ele><time>2026-04-11T15:49:50.061Z</time></trkpt><trkpt lat="45.8133576" lon="12.1348827"><ele>266.2</ele><time>2026-04-11T15:49:52.068Z</time></trkpt><trkpt lat="45.8133115" lon="12.134788"><ele>267.59999999999997</ele><time>2026-04-11T15:49:53.066Z</time></trkpt><trkpt lat="45.8132526" lon="12.1346819"><ele>269.0</ele><time>2026-04-11T15:49:54.059Z</time></trkpt><trkpt lat="45.8131679" lon="12.134579"><ele>269.0</ele><time>2026-04-11T15:49:55.054Z</time></trkpt><trkpt lat="45.8130858" lon="12.1344929"><ele>269.0</ele><time>2026-04-11T15:49:56.065Z</time></trkpt><trkpt lat="45.8130093" lon="12.1343894"><ele>269.0</ele><time>2026-04-11T15:49:57.068Z</time></trkpt><trkpt lat="45.8129455" lon="12.1342851"><ele>269.0</ele><time>2026-04-11T15:49:58.062Z</time></trkpt><trkpt lat="45.8128826" lon="12.1341828"><ele>269.0</ele><time>2026-04-11T15:49:59.063Z</time></trkpt><trkpt lat="45.8128113" lon="12.1340596"><ele>269.33333333333337</ele><time>2026-04-11T15:50:00.058Z</time></trkpt><trkpt lat="45.8127532" lon="12.1339499"><ele>269.6666666666667</ele><time>2026-04-11T15:50:01.065Z</time></trkpt><trkpt lat="45.8126956" lon="12.1338616"><ele>270.0</ele><time>2026-04-11T15:50:02.063Z</time></trkpt><trkpt lat="45.8126443" lon="12.1337782"><ele>270.3333333333333</ele><time>2026-04-11T15:50:03.054Z</time></trkpt><trkpt lat="45.8125939" lon="12.1336945"><ele>270.66666666666663</ele><time>2026-04-11T15:50:05.056Z</time></trkpt><trkpt lat="45.812529" lon="12.1336034"><ele>271.0</ele><time>2026-04-11T15:50:40.066Z</time></trkpt><trkpt lat="45.8124762" lon="12.1335121"><ele>271.40000000000003</ele><time>2026-04-11T15:50:42.053Z</time></trkpt><trkpt lat="45.8124262" lon="12.1333716"><ele>271.8</ele><time>2026-04-11T15:50:44.057Z</time></trkpt><trkpt lat="45.8123787" lon="12.1332076"><ele>272.20000000000005</ele><time>2026-04-11T15:50:46.077Z</time></trkpt><trkpt lat="45.8123556" lon="12.1331016"><ele>272.6</ele><time>2026-04-11T15:50:47.063Z</time></trkpt><trkpt lat="45.8123324" lon="12.132995"><ele>273.0</ele><time>2026-04-11T15:50:48.068Z</time></trkpt><trkpt lat="45.8123046" lon="12.1328865"><ele>273.0</ele><time>2026-04-11T15:50:49.058Z</time></trkpt><trkpt lat="45.812281" lon="12.1327962"><ele>273.0</ele><time>2026-04-11T15:50:50.062Z</time></trkpt><trkpt lat="45.8122506" lon="12.1327085"><ele>273.0</ele><time>2026-04-11T15:50:51.063Z</time></trkpt><trkpt lat="45.8122227" lon="12.1326097"><ele>273.0</ele><time>2026-04-11T15:50:52.06Z</time></trkpt><trkpt lat="45.8122109" lon="12.1325105"><ele>273.0</ele><time>2026-04-11T15:50:53.055Z</time></trkpt><trkpt lat="45.8121961" lon="12.1324161"><ele>273.0</ele><time>2026-04-11T15:50:54.056Z</time></trkpt><trkpt lat="45.8121829" lon="12.1323142"><ele>273.0</ele><time>2026-04-11T15:50:55.061Z</time></trkpt><trkpt lat="45.8121731" lon="12.1322179"><ele>273.0</ele><time>2026-04-11T15:50:56.061Z</time></trkpt><trkpt lat="45.8121689" lon="12.1321189"><ele>273.0</ele><time>2026-04-11T15:50:57.058Z</time></trkpt><trkpt lat="45.8121554" lon="12.1320262"><ele>273.0</ele><time>2026-04-11T15:50:58.06Z</time></trkpt><trkpt lat="45.8121488" lon="12.1319204"><ele>273.0</ele><time>2026-04-11T15:50:59.061Z</time></trkpt><trkpt lat="45.8121949" lon="12.1317863"><ele>273.0</ele><time>2026-04-11T15:51:01.066Z</time></trkpt><trkpt lat="45.8121804" lon="12.1316586"><ele>273.0</ele><time>2026-04-11T15:51:03.054Z</time></trkpt><trkpt lat="45.8121265" lon="12.1315695"><ele>273.0</ele><time>2026-04-11T15:51:05.054Z</time></trkpt><trkpt lat="45.8119987" lon="12.1315761"><ele>273.0</ele><time>2026-04-11T15:51:07.068Z</time></trkpt><trkpt lat="45.8119048" lon="12.1316303"><ele>273.0</ele><time>2026-04-11T15:51:08.063Z</time></trkpt><trkpt lat="45.8118382" lon="12.1316354"><ele>273.0</ele><time>2026-04-11T15:51:09.069Z</time></trkpt><trkpt lat="45.8117758" lon="12.1316627"><ele>273.0</ele><time>2026-04-11T15:51:10.054Z</time></trkpt><trkpt lat="45.8116927" lon="12.131773"><ele>272.0</ele><time>2026-04-11T15:51:12.055Z</time></trkpt><trkpt lat="45.8116345" lon="12.1319329"><ele>271.0</ele><time>2026-04-11T15:51:14.064Z</time></trkpt><trkpt lat="45.8116008" lon="12.1320492"><ele>270.0</ele><time>2026-04-11T15:51:15.058Z</time></trkpt><trkpt lat="45.811564" lon="12.1321742"><ele>269.0</ele><time>2026-04-11T15:51:16.063Z</time></trkpt><trkpt lat="45.8115254" lon="12.1322689"><ele>268.0</ele><time>2026-04-11T15:51:17.055Z</time></trkpt><trkpt lat="45.8114819" lon="12.1323724"><ele>267.0</ele><time>2026-04-11T15:51:18.056Z</time></trkpt><trkpt lat="45.8114365" lon="12.1324611"><ele>266.0</ele><time>2026-04-11T15:51:19.056Z</time></trkpt><trkpt lat="45.8113874" lon="12.132539"><ele>265.0</ele><time>2026-04-11T15:51:20.06Z</time></trkpt><trkpt lat="45.8113375" lon="12.1325949"><ele>264.0</ele><time>2026-04-11T15:51:21.06Z</time></trkpt><trkpt lat="45.811222" lon="12.13263"><ele>263.0</ele><time>2026-04-11T15:51:23.064Z</time></trkpt><trkpt lat="45.8111229" lon="12.1325734"><ele>262.0</ele><time>2026-04-11T15:51:25.061Z</time></trkpt><trkpt lat="45.8110288" lon="12.1324631"><ele>263.42857142857144</ele><time>2026-04-11T15:51:27.053Z</time></trkpt><trkpt lat="45.8109766" lon="12.1323904"><ele>264.8571428571429</ele><time>2026-04-11T15:51:28.061Z</time></trkpt><trkpt lat="45.8109238" lon="12.1323163"><ele>266.2857142857143</ele><time>2026-04-11T15:51:29.078Z</time></trkpt><trkpt lat="45.8108697" lon="12.1322573"><ele>267.7142857142857</ele><time>2026-04-11T15:51:30.056Z</time></trkpt><trkpt lat="45.8108082" lon="12.1322088"><ele>269.1428571428571</ele><time>2026-04-11T15:51:31.056Z</time></trkpt><trkpt lat="45.8107425" lon="12.1321768"><ele>270.57142857142856</ele><time>2026-04-11T15:51:32.063Z</time></trkpt><trkpt lat="45.8106684" lon="12.1321887"><ele>272.0</ele><time>2026-04-11T15:51:33.062Z</time></trkpt><trkpt lat="45.810588" lon="12.1322047"><ele>272.5</ele><time>2026-04-11T15:51:34.052Z</time></trkpt><trkpt lat="45.8105151" lon="12.1322129"><ele>273.0</ele><time>2026-04-11T15:51:35.063Z</time></trkpt><trkpt lat="45.8104045" lon="12.1321979"><ele>273.5</ele><time>2026-04-11T15:51:37.057Z</time></trkpt><trkpt lat="45.8103481" lon="12.1321463"><ele>274.0</ele><time>2026-04-11T15:51:38.065Z</time></trkpt><trkpt lat="45.8102928" lon="12.1320753"><ele>274.5</ele><time>2026-04-11T15:51:39.063Z</time></trkpt><trkpt lat="45.8102341" lon="12.1320254"><ele>275.0</ele><time>2026-04-11T15:51:40.062Z</time></trkpt><trkpt lat="45.810165" lon="12.1319798"><ele>274.8</ele><time>2026-04-11T15:51:41.074Z</time></trkpt><trkpt lat="45.8100844" lon="12.1319444"><ele>274.6</ele><time>2026-04-11T15:51:42.061Z</time></trkpt><trkpt lat="45.8099758" lon="12.1319049"><ele>274.4</ele><time>2026-04-11T15:51:44.057Z</time></trkpt><trkpt lat="45.809866" lon="12.13192"><ele>274.2</ele><time>2026-04-11T15:51:46.066Z</time></trkpt><trkpt lat="45.8098051" lon="12.1319601"><ele>274.0</ele><time>2026-04-11T15:51:47.064Z</time></trkpt><trkpt lat="45.8097351" lon="12.1320161"><ele>274.0</ele><time>2026-04-11T15:51:48.068Z</time></trkpt><trkpt lat="45.8096491" lon="12.1320682"><ele>274.0</ele><time>2026-04-11T15:51:49.065Z</time></trkpt><trkpt lat="45.80956" lon="12.1321131"><ele>274.0</ele><time>2026-04-11T15:51:50.065Z</time></trkpt><trkpt lat="45.8094774" lon="12.1321417"><ele>274.0</ele><time>2026-04-11T15:51:51.056Z</time></trkpt><trkpt lat="45.8094013" lon="12.1321586"><ele>274.0</ele><time>2026-04-11T15:51:52.069Z</time></trkpt><trkpt lat="45.8093209" lon="12.1321655"><ele>274.0</ele><time>2026-04-11T15:51:53.072Z</time></trkpt><trkpt lat="45.809241" lon="12.1321628"><ele>273.8333333333333</ele><time>2026-04-11T15:51:54.059Z</time></trkpt><trkpt lat="45.8091757" lon="12.1321479"><ele>273.66666666666663</ele><time>2026-04-11T15:51:55.062Z</time></trkpt><trkpt lat="45.8091126" lon="12.1321167"><ele>273.5</ele><time>2026-04-11T15:51:56.06Z</time></trkpt><trkpt lat="45.8090203" lon="12.1320494"><ele>273.3333333333333</ele><time>2026-04-11T15:51:58.054Z</time></trkpt><trkpt lat="45.8089472" lon="12.1320034"><ele>273.1666666666667</ele><time>2026-04-11T15:52:01.056Z</time></trkpt><trkpt lat="45.8088699" lon="12.1320199"><ele>273.0</ele><time>2026-04-11T15:52:04.055Z</time></trkpt><trkpt lat="45.808788" lon="12.132136"><ele>273.0</ele><time>2026-04-11T15:52:06.059Z</time></trkpt><trkpt lat="45.8087384" lon="12.1322179"><ele>273.0</ele><time>2026-04-11T15:52:07.056Z</time></trkpt><trkpt lat="45.8086806" lon="12.1322785"><ele>273.0</ele><time>2026-04-11T15:52:08.067Z</time></trkpt><trkpt lat="45.8086201" lon="12.1323215"><ele>273.0</ele><time>2026-04-11T15:52:09.058Z</time></trkpt><trkpt lat="45.8085503" lon="12.132355"><ele>273.0</ele><time>2026-04-11T15:52:10.063Z</time></trkpt><trkpt lat="45.8084734" lon="12.1323865"><ele>273.0</ele><time>2026-04-11T15:52:11.065Z</time></trkpt><trkpt lat="45.8083977" lon="12.1324215"><ele>273.0</ele><time>2026-04-11T15:52:12.059Z</time></trkpt><trkpt lat="45.8083246" lon="12.1324571"><ele>272.0</ele><time>2026-04-11T15:52:13.062Z</time></trkpt><trkpt lat="45.8082467" lon="12.132499"><ele>271.0</ele><time>2026-04-11T15:52:14.057Z</time></trkpt><trkpt lat="45.8081635" lon="12.1325538"><ele>270.0</ele><time>2026-04-11T15:52:15.055Z</time></trkpt><trkpt lat="45.8080574" lon="12.1326207"><ele>269.0</ele><time>2026-04-11T15:52:16.053Z</time></trkpt><trkpt lat="45.8079634" lon="12.132681"><ele>268.0</ele><time>2026-04-11T15:52:17.052Z</time></trkpt><trkpt lat="45.8078684" lon="12.1327537"><ele>268.0</ele><time>2026-04-11T15:52:18.054Z</time></trkpt><trkpt lat="45.8077698" lon="12.1328399"><ele>268.0</ele><time>2026-04-11T15:52:19.058Z</time></trkpt><trkpt lat="45.8076411" lon="12.1328538"><ele>268.0</ele><time>2026-04-11T15:52:21.056Z</time></trkpt><trkpt lat="45.807549" lon="12.132872"><ele>268.0</ele><time>2026-04-11T15:52:22.062Z</time></trkpt><trkpt lat="45.8074842" lon="12.1328953"><ele>268.0</ele><time>2026-04-11T15:52:23.056Z</time></trkpt><trkpt lat="45.8074055" lon="12.1329389"><ele>266.6</ele><time>2026-04-11T15:52:24.059Z</time></trkpt><trkpt lat="45.8073456" lon="12.132985"><ele>265.20000000000005</ele><time>2026-04-11T15:52:25.056Z</time></trkpt><trkpt lat="45.807279" lon="12.1330732"><ele>263.8</ele><time>2026-04-11T15:52:26.07Z</time></trkpt><trkpt lat="45.8072062" lon="12.1331875"><ele>262.40000000000003</ele><time>2026-04-11T15:52:27.059Z</time></trkpt><trkpt lat="45.8071346" lon="12.1332871"><ele>261.0</ele><time>2026-04-11T15:52:28.057Z</time></trkpt><trkpt lat="45.8070605" lon="12.1333671"><ele>260.8</ele><time>2026-04-11T15:52:29.055Z</time></trkpt><trkpt lat="45.8069831" lon="12.1334363"><ele>260.6</ele><time>2026-04-11T15:52:30.064Z</time></trkpt><trkpt lat="45.8069008" lon="12.1334893"><ele>260.4</ele><time>2026-04-11T15:52:31.066Z</time></trkpt><trkpt lat="45.8068075" lon="12.1335308"><ele>260.2</ele><time>2026-04-11T15:52:32.054Z</time></trkpt><trkpt lat="45.8067213" lon="12.1335679"><ele>260.0</ele><time>2026-04-11T15:52:33.057Z</time></trkpt><trkpt lat="45.8066345" lon="12.1335805"><ele>260.6</ele><time>2026-04-11T15:52:34.055Z</time></trkpt><trkpt lat="45.8065643" lon="12.1335592"><ele>261.2</ele><time>2026-04-11T15:52:35.055Z</time></trkpt><trkpt lat="45.8064436" lon="12.1335062"><ele>261.8</ele><time>2026-04-11T15:52:37.058Z</time></trkpt><trkpt lat="45.8063858" lon="12.1334261"><ele>262.4</ele><time>2026-04-11T15:52:38.054Z</time></trkpt><trkpt lat="45.8063013" lon="12.1333452"><ele>263.0</ele><time>2026-04-11T15:52:39.053Z</time></trkpt><trkpt lat="45.8062151" lon="12.133243"><ele>262.8</ele><time>2026-04-11T15:52:40.063Z</time></trkpt><trkpt lat="45.8061446" lon="12.1331792"><ele>262.6</ele><time>2026-04-11T15:52:41.052Z</time></trkpt><trkpt lat="45.8060832" lon="12.1331104"><ele>262.4</ele><time>2026-04-11T15:52:42.053Z</time></trkpt><trkpt lat="45.8060385" lon="12.1330058"><ele>262.2</ele><time>2026-04-11T15:52:43.057Z</time></trkpt><trkpt lat="45.8059862" lon="12.1329174"><ele>262.0</ele><time>2026-04-11T15:52:44.066Z</time></trkpt><trkpt lat="45.8058782" lon="12.1328172"><ele>261.8333333333333</ele><time>2026-04-11T15:52:46.056Z</time></trkpt><trkpt lat="45.8058131" lon="12.1328074"><ele>261.66666666666663</ele><time>2026-04-11T15:52:47.056Z</time></trkpt><trkpt lat="45.8057421" lon="12.1328132"><ele>261.5</ele><time>2026-04-11T15:52:48.056Z</time></trkpt><trkpt lat="45.80565" lon="12.13283"><ele>261.3333333333333</ele><time>2026-04-11T15:52:49.057Z</time></trkpt><trkpt lat="45.8055628" lon="12.1328405"><ele>261.1666666666667</ele><time>2026-04-11T15:52:50.051Z</time></trkpt><trkpt lat="45.8054913" lon="12.1328617"><ele>261.0</ele><time>2026-04-11T15:52:51.071Z</time></trkpt><trkpt lat="45.8054245" lon="12.132893"><ele>261.0</ele><time>2026-04-11T15:52:52.057Z</time></trkpt><trkpt lat="45.8053645" lon="12.132946"><ele>261.0</ele><time>2026-04-11T15:52:53.063Z</time></trkpt><trkpt lat="45.8053044" lon="12.1330068"><ele>261.0</ele><time>2026-04-11T15:52:54.063Z</time></trkpt><trkpt lat="45.8052358" lon="12.133115"><ele>261.0</ele><time>2026-04-11T15:52:55.065Z</time></trkpt><trkpt lat="45.8051739" lon="12.133203"><ele>261.0</ele><time>2026-04-11T15:52:56.058Z</time></trkpt><trkpt lat="45.8051112" lon="12.1333176"><ele>261.0</ele><time>2026-04-11T15:52:57.062Z</time></trkpt><trkpt lat="45.8050384" lon="12.1334161"><ele>259.8</ele><time>2026-04-11T15:52:58.062Z</time></trkpt><trkpt lat="45.8049838" lon="12.1335067"><ele>258.6</ele><time>2026-04-11T15:52:59.053Z</time></trkpt><trkpt lat="45.8048992" lon="12.1336219"><ele>257.4</ele><time>2026-04-11T15:53:01.054Z</time></trkpt><trkpt lat="45.8047956" lon="12.1336831"><ele>256.2</ele><time>2026-04-11T15:53:03.054Z</time></trkpt><trkpt lat="45.8047273" lon="12.1337179"><ele>255.0</ele><time>2026-04-11T15:53:04.061Z</time></trkpt><trkpt lat="45.8046472" lon="12.1337351"><ele>255.0</ele><time>2026-04-11T15:53:05.069Z</time></trkpt><trkpt lat="45.8045545" lon="12.1338123"><ele>255.0</ele><time>2026-04-11T15:53:06.067Z</time></trkpt><trkpt lat="45.8044684" lon="12.1338772"><ele>255.0</ele><time>2026-04-11T15:53:07.06Z</time></trkpt><trkpt lat="45.8043897" lon="12.1339146"><ele>255.0</ele><time>2026-04-11T15:53:08.063Z</time></trkpt><trkpt lat="45.8042934" lon="12.133958"><ele>255.0</ele><time>2026-04-11T15:53:09.059Z</time></trkpt><trkpt lat="45.8041996" lon="12.1340074"><ele>254.0</ele><time>2026-04-11T15:53:10.058Z</time></trkpt><trkpt lat="45.804111" lon="12.1340394"><ele>253.0</ele><time>2026-04-11T15:53:11.058Z</time></trkpt><trkpt lat="45.8040159" lon="12.1340812"><ele>252.0</ele><time>2026-04-11T15:53:12.056Z</time></trkpt><trkpt lat="45.8039181" lon="12.1341367"><ele>251.0</ele><time>2026-04-11T15:53:13.055Z</time></trkpt><trkpt lat="45.8038247" lon="12.1341865"><ele>250.0</ele><time>2026-04-11T15:53:14.064Z</time></trkpt><trkpt lat="45.8037307" lon="12.1342462"><ele>249.4</ele><time>2026-04-11T15:53:15.06Z</time></trkpt><trkpt lat="45.8036388" lon="12.1343044"><ele>248.8</ele><time>2026-04-11T15:53:16.05Z</time></trkpt><trkpt lat="45.8035632" lon="12.1343505"><ele>248.2</ele><time>2026-04-11T15:53:17.057Z</time></trkpt><trkpt lat="45.8034579" lon="12.1344161"><ele>247.6</ele><time>2026-04-11T15:53:19.056Z</time></trkpt><trkpt lat="45.8033659" lon="12.1344688"><ele>247.0</ele><time>2026-04-11T15:53:22.069Z</time></trkpt><trkpt lat="45.8032825" lon="12.1345722"><ele>245.83333333333331</ele><time>2026-04-11T15:53:24.064Z</time></trkpt><trkpt lat="45.8032364" lon="12.1346463"><ele>244.66666666666666</ele><time>2026-04-11T15:53:25.066Z</time></trkpt><trkpt lat="45.8031891" lon="12.1347212"><ele>243.5</ele><time>2026-04-11T15:53:26.057Z</time></trkpt><trkpt lat="45.8031426" lon="12.1348071"><ele>242.33333333333331</ele><time>2026-04-11T15:53:27.063Z</time></trkpt><trkpt lat="45.8030879" lon="12.1348937"><ele>241.16666666666666</ele><time>2026-04-11T15:53:28.053Z</time></trkpt><trkpt lat="45.8030232" lon="12.135001"><ele>240.0</ele><time>2026-04-11T15:53:29.063Z</time></trkpt><trkpt lat="45.8029545" lon="12.1351022"><ele>239.8</ele><time>2026-04-11T15:53:30.057Z</time></trkpt><trkpt lat="45.8028884" lon="12.1352037"><ele>239.6</ele><time>2026-04-11T15:53:31.062Z</time></trkpt><trkpt lat="45.8028242" lon="12.1353041"><ele>239.39999999999998</ele><time>2026-04-11T15:53:32.058Z</time></trkpt><trkpt lat="45.8027567" lon="12.1354117"><ele>239.2</ele><time>2026-04-11T15:53:33.067Z</time></trkpt><trkpt lat="45.802705" lon="12.1354975"><ele>239.0</ele><time>2026-04-11T15:53:34.058Z</time></trkpt><trkpt lat="45.8026582" lon="12.1355893"><ele>238.66666666666669</ele><time>2026-04-11T15:53:35.059Z</time></trkpt><trkpt lat="45.8026181" lon="12.1356906"><ele>238.33333333333334</ele><time>2026-04-11T15:53:36.058Z</time></trkpt><trkpt lat="45.802586" lon="12.1357836"><ele>238.0</ele><time>2026-04-11T15:53:37.059Z</time></trkpt><trkpt lat="45.8025594" lon="12.1358784"><ele>237.66666666666669</ele><time>2026-04-11T15:53:38.06Z</time></trkpt><trkpt lat="45.8025344" lon="12.135975"><ele>237.33333333333334</ele><time>2026-04-11T15:53:39.066Z</time></trkpt><trkpt lat="45.8024944" lon="12.1361493"><ele>237.0</ele><time>2026-04-11T15:53:41.065Z</time></trkpt><trkpt lat="45.8024896" lon="12.136245"><ele>236.16666666666666</ele><time>2026-04-11T15:53:42.063Z</time></trkpt><trkpt lat="45.8024866" lon="12.136337"><ele>235.33333333333331</ele><time>2026-04-11T15:53:43.058Z</time></trkpt><trkpt lat="45.8024944" lon="12.1364422"><ele>234.5</ele><time>2026-04-11T15:53:44.066Z</time></trkpt><trkpt lat="45.8024921" lon="12.1365595"><ele>233.66666666666666</ele><time>2026-04-11T15:53:45.059Z</time></trkpt><trkpt lat="45.8024794" lon="12.1366926"><ele>232.83333333333331</ele><time>2026-04-11T15:53:46.059Z</time></trkpt><trkpt lat="45.8024722" lon="12.1368092"><ele>232.0</ele><time>2026-04-11T15:53:47.059Z</time></trkpt><trkpt lat="45.802459" lon="12.1369388"><ele>231.16666666666666</ele><time>2026-04-11T15:53:48.058Z</time></trkpt><trkpt lat="45.8024435" lon="12.137055"><ele>230.33333333333331</ele><time>2026-04-11T15:53:49.063Z</time></trkpt><trkpt lat="45.8024268" lon="12.1371681"><ele>229.5</ele><time>2026-04-11T15:53:50.058Z</time></trkpt><trkpt lat="45.8024109" lon="12.1372636"><ele>228.66666666666669</ele><time>2026-04-11T15:53:51.055Z</time></trkpt><trkpt lat="45.8023913" lon="12.1373514"><ele>227.83333333333334</ele><time>2026-04-11T15:53:52.064Z</time></trkpt><trkpt lat="45.8023979" lon="12.1375054"><ele>227.0</ele><time>2026-04-11T15:53:54.064Z</time></trkpt><trkpt lat="45.8024187" lon="12.1376715"><ele>225.50000000000003</ele><time>2026-04-11T15:53:56.061Z</time></trkpt><trkpt lat="45.8024492" lon="12.137756"><ele>224.0</ele><time>2026-04-11T15:53:57.055Z</time></trkpt><trkpt lat="45.8024832" lon="12.1378369"><ele>222.5</ele><time>2026-04-11T15:53:58.056Z</time></trkpt><trkpt lat="45.8025408" lon="12.1379604"><ele>221.0</ele><time>2026-04-11T15:54:00.055Z</time></trkpt><trkpt lat="45.8025661" lon="12.1380451"><ele>219.50000000000003</ele><time>2026-04-11T15:54:02.058Z</time></trkpt><trkpt lat="45.8025239" lon="12.1381335"><ele>218.0</ele><time>2026-04-11T15:54:21.055Z</time></trkpt><trkpt lat="45.8023876" lon="12.1381881"><ele>216.83333333333334</ele><time>2026-04-11T15:54:23.052Z</time></trkpt><trkpt lat="45.8022972" lon="12.1382223"><ele>215.66666666666669</ele><time>2026-04-11T15:54:24.059Z</time></trkpt><trkpt lat="45.802222" lon="12.1382614"><ele>214.5</ele><time>2026-04-11T15:54:25.052Z</time></trkpt><trkpt lat="45.8021513" lon="12.1383168"><ele>213.33333333333331</ele><time>2026-04-11T15:54:26.054Z</time></trkpt><trkpt lat="45.8020773" lon="12.1383908"><ele>212.16666666666666</ele><time>2026-04-11T15:54:27.058Z</time></trkpt><trkpt lat="45.8020035" lon="12.1384824"><ele>211.0</ele><time>2026-04-11T15:54:28.055Z</time></trkpt><trkpt lat="45.8019285" lon="12.1385729"><ele>211.0</ele><time>2026-04-11T15:54:29.054Z</time></trkpt><trkpt lat="45.8018656" lon="12.1386529"><ele>211.0</ele><time>2026-04-11T15:54:30.054Z</time></trkpt><trkpt lat="45.8018045" lon="12.1387176"><ele>211.0</ele><time>2026-04-11T15:54:31.06Z</time></trkpt><trkpt lat="45.8017442" lon="12.1387713"><ele>211.0</ele><time>2026-04-11T15:54:32.052Z</time></trkpt><trkpt lat="45.8016301" lon="12.1388427"><ele>211.0</ele><time>2026-04-11T15:54:34.059Z</time></trkpt><trkpt lat="45.8015327" lon="12.1388913"><ele>210.8</ele><time>2026-04-11T15:54:36.053Z</time></trkpt><trkpt lat="45.8014217" lon="12.1389409"><ele>210.60000000000002</ele><time>2026-04-11T15:54:38.057Z</time></trkpt><trkpt lat="45.8013362" lon="12.1389724"><ele>210.4</ele><time>2026-04-11T15:54:39.053Z</time></trkpt><trkpt lat="45.8012646" lon="12.1390022"><ele>210.2</ele><time>2026-04-11T15:54:40.059Z</time></trkpt><trkpt lat="45.8011928" lon="12.1390179"><ele>210.0</ele><time>2026-04-11T15:54:41.057Z</time></trkpt><trkpt lat="45.801069" lon="12.1390234"><ele>208.33333333333334</ele><time>2026-04-11T15:54:43.057Z</time></trkpt><trkpt lat="45.8009436" lon="12.1389952"><ele>206.66666666666669</ele><time>2026-04-11T15:54:45.061Z</time></trkpt><trkpt lat="45.8008838" lon="12.1389557"><ele>205.0</ele><time>2026-04-11T15:54:46.063Z</time></trkpt><trkpt lat="45.8008234" lon="12.13891"><ele>203.33333333333334</ele><time>2026-04-11T15:54:47.053Z</time></trkpt><trkpt lat="45.8007712" lon="12.1388565"><ele>201.66666666666669</ele><time>2026-04-11T15:54:48.056Z</time></trkpt><trkpt lat="45.8007193" lon="12.1387875"><ele>200.0</ele><time>2026-04-11T15:54:49.061Z</time></trkpt><trkpt lat="45.8006647" lon="12.1387085"><ele>200.00000000000003</ele><time>2026-04-11T15:54:50.066Z</time></trkpt><trkpt lat="45.80061" lon="12.1386385"><ele>200.0</ele><time>2026-04-11T15:54:51.062Z</time></trkpt><trkpt lat="45.8005567" lon="12.138578"><ele>200.0</ele><time>2026-04-11T15:54:52.064Z</time></trkpt><trkpt lat="45.800498" lon="12.1385285"><ele>200.0</ele><time>2026-04-11T15:54:53.059Z</time></trkpt><trkpt lat="45.800388" lon="12.1384618"><ele>200.00000000000003</ele><time>2026-04-11T15:54:55.057Z</time></trkpt><trkpt lat="45.8002861" lon="12.1384469"><ele>200.0</ele><time>2026-04-11T15:54:57.053Z</time></trkpt><trkpt lat="45.8002113" lon="12.1384708"><ele>198.85714285714286</ele><time>2026-04-11T15:54:58.054Z</time></trkpt><trkpt lat="45.8001337" lon="12.1384963"><ele>197.71428571428572</ele><time>2026-04-11T15:54:59.062Z</time></trkpt><trkpt lat="45.8000665" lon="12.1385247"><ele>196.57142857142856</ele><time>2026-04-11T15:55:00.054Z</time></trkpt><trkpt lat="45.7999969" lon="12.1385645"><ele>195.42857142857144</ele><time>2026-04-11T15:55:01.061Z</time></trkpt><trkpt lat="45.7999381" lon="12.1386128"><ele>194.28571428571428</ele><time>2026-04-11T15:55:02.063Z</time></trkpt><trkpt lat="45.7998818" lon="12.1386769"><ele>193.14285714285714</ele><time>2026-04-11T15:55:03.059Z</time></trkpt><trkpt lat="45.7998415" lon="12.1387629"><ele>192.0</ele><time>2026-04-11T15:55:04.064Z</time></trkpt><trkpt lat="45.7998048" lon="12.1388616"><ele>192.0</ele><time>2026-04-11T15:55:05.06Z</time></trkpt><trkpt lat="45.7997633" lon="12.1389908"><ele>192.0</ele><time>2026-04-11T15:55:06.058Z</time></trkpt><trkpt lat="45.7997297" lon="12.1390974"><ele>192.0</ele><time>2026-04-11T15:55:07.055Z</time></trkpt><trkpt lat="45.7996984" lon="12.1391895"><ele>192.0</ele><time>2026-04-11T15:55:08.066Z</time></trkpt><trkpt lat="45.7996664" lon="12.13927"><ele>192.0</ele><time>2026-04-11T15:55:09.065Z</time></trkpt><trkpt lat="45.799577" lon="12.1393812"><ele>192.0</ele><time>2026-04-11T15:55:11.058Z</time></trkpt><trkpt lat="45.7994741" lon="12.1394559"><ele>191.16666666666666</ele><time>2026-04-11T15:55:13.054Z</time></trkpt><trkpt lat="45.7993596" lon="12.1394711"><ele>190.33333333333334</ele><time>2026-04-11T15:55:15.057Z</time></trkpt><trkpt lat="45.7992916" lon="12.1394668"><ele>189.5</ele><time>2026-04-11T15:55:16.059Z</time></trkpt><trkpt lat="45.7992118" lon="12.139458"><ele>188.66666666666669</ele><time>2026-04-11T15:55:17.055Z</time></trkpt><trkpt lat="45.7991417" lon="12.1394598"><ele>187.83333333333334</ele><time>2026-04-11T15:55:18.054Z</time></trkpt><trkpt lat="45.7990734" lon="12.1394643"><ele>187.0</ele><time>2026-04-11T15:55:19.062Z</time></trkpt><trkpt lat="45.7989484" lon="12.1394691"><ele>185.2</ele><time>2026-04-11T15:55:21.062Z</time></trkpt><trkpt lat="45.798811" lon="12.1394497"><ele>183.39999999999998</ele><time>2026-04-11T15:55:23.062Z</time></trkpt><trkpt lat="45.7987064" lon="12.1394172"><ele>181.60000000000002</ele><time>2026-04-11T15:55:25.064Z</time></trkpt><trkpt lat="45.7986348" lon="12.1394198"><ele>179.8</ele><time>2026-04-11T15:55:27.06Z</time></trkpt><trkpt lat="45.7985776" lon="12.1395029"><ele>178.0</ele><time>2026-04-11T15:55:46.068Z</time></trkpt><trkpt lat="45.7985683" lon="12.1395934"><ele>178.0</ele><time>2026-04-11T15:55:48.053Z</time></trkpt><trkpt lat="45.7985394" lon="12.1397535"><ele>178.0</ele><time>2026-04-11T15:55:50.059Z</time></trkpt><trkpt lat="45.798512" lon="12.1399209"><ele>178.0</ele><time>2026-04-11T15:55:52.059Z</time></trkpt><trkpt lat="45.7984751" lon="12.1400667"><ele>178.0</ele><time>2026-04-11T15:55:54.06Z</time></trkpt><trkpt lat="45.7983771" lon="12.1402116"><ele>176.66666666666669</ele><time>2026-04-11T15:55:56.06Z</time></trkpt><trkpt lat="45.7983086" lon="12.1402729"><ele>175.33333333333334</ele><time>2026-04-11T15:55:57.062Z</time></trkpt><trkpt lat="45.7982488" lon="12.1403286"><ele>174.0</ele><time>2026-04-11T15:55:58.051Z</time></trkpt><trkpt lat="45.798188" lon="12.140365"><ele>172.66666666666666</ele><time>2026-04-11T15:55:59.062Z</time></trkpt><trkpt lat="45.7980879" lon="12.140455"><ele>171.33333333333331</ele><time>2026-04-11T15:56:01.054Z</time></trkpt><trkpt lat="45.7980384" lon="12.1405868"><ele>170.0</ele><time>2026-04-11T15:56:03.058Z</time></trkpt><trkpt lat="45.7980393" lon="12.1407765"><ele>169.83333333333331</ele><time>2026-04-11T15:56:05.049Z</time></trkpt><trkpt lat="45.7980573" lon="12.1408953"><ele>169.66666666666666</ele><time>2026-04-11T15:56:06.062Z</time></trkpt><trkpt lat="45.7980718" lon="12.1409958"><ele>169.5</ele><time>2026-04-11T15:56:07.059Z</time></trkpt><trkpt lat="45.7980878" lon="12.1411747"><ele>169.33333333333334</ele><time>2026-04-11T15:56:09.056Z</time></trkpt><trkpt lat="45.7980801" lon="12.1412668"><ele>169.16666666666669</ele><time>2026-04-11T15:56:10.058Z</time></trkpt><trkpt lat="45.7980581" lon="12.1413547"><ele>169.0</ele><time>2026-04-11T15:56:11.054Z</time></trkpt><trkpt lat="45.7980216" lon="12.1414488"><ele>169.0</ele><time>2026-04-11T15:56:12.06Z</time></trkpt><trkpt lat="45.7979838" lon="12.1415373"><ele>169.0</ele><time>2026-04-11T15:56:13.063Z</time></trkpt><trkpt lat="45.7979307" lon="12.1417019"><ele>169.0</ele><time>2026-04-11T15:56:15.05Z</time></trkpt><trkpt lat="45.79791" lon="12.1418003"><ele>169.0</ele><time>2026-04-11T15:56:16.054Z</time></trkpt><trkpt lat="45.7978953" lon="12.1418978"><ele>169.0</ele><time>2026-04-11T15:56:17.054Z</time></trkpt><trkpt lat="45.7978842" lon="12.1419917"><ele>169.0</ele><time>2026-04-11T15:56:18.061Z</time></trkpt><trkpt lat="45.7978755" lon="12.1421495"><ele>169.16666666666669</ele><time>2026-04-11T15:56:20.06Z</time></trkpt><trkpt lat="45.7978672" lon="12.1422864"><ele>169.33333333333334</ele><time>2026-04-11T15:56:22.058Z</time></trkpt><trkpt lat="45.7978309" lon="12.1424148"><ele>169.5</ele><time>2026-04-11T15:56:24.056Z</time></trkpt><trkpt lat="45.7977396" lon="12.1425223"><ele>169.66666666666666</ele><time>2026-04-11T15:56:26.066Z</time></trkpt><trkpt lat="45.7976802" lon="12.1425642"><ele>169.83333333333331</ele><time>2026-04-11T15:56:27.056Z</time></trkpt><trkpt lat="45.7976177" lon="12.1426079"><ele>170.0</ele><time>2026-04-11T15:56:28.051Z</time></trkpt><trkpt lat="45.7975452" lon="12.1426595"><ele>166.83333333333331</ele><time>2026-04-11T15:56:29.052Z</time></trkpt><trkpt lat="45.7974783" lon="12.1427156"><ele>163.66666666666666</ele><time>2026-04-11T15:56:30.052Z</time></trkpt><trkpt lat="45.7974086" lon="12.1427801"><ele>160.5</ele><time>2026-04-11T15:56:31.053Z</time></trkpt><trkpt lat="45.7973492" lon="12.1428343"><ele>157.33333333333334</ele><time>2026-04-11T15:56:32.057Z</time></trkpt><trkpt lat="45.7972894" lon="12.1429076"><ele>154.16666666666669</ele><time>2026-04-11T15:56:33.052Z</time></trkpt><trkpt lat="45.797227" lon="12.1429759"><ele>151.0</ele><time>2026-04-11T15:56:34.06Z</time></trkpt><trkpt lat="45.7971433" lon="12.1430983"><ele>150.16666666666669</ele><time>2026-04-11T15:56:36.059Z</time></trkpt><trkpt lat="45.7971138" lon="12.1432465"><ele>149.33333333333334</ele><time>2026-04-11T15:56:38.056Z</time></trkpt><trkpt lat="45.7971014" lon="12.1433388"><ele>148.5</ele><time>2026-04-11T15:56:39.058Z</time></trkpt><trkpt lat="45.7970918" lon="12.1434341"><ele>147.66666666666666</ele><time>2026-04-11T15:56:40.059Z</time></trkpt><trkpt lat="45.7970888" lon="12.143544"><ele>146.83333333333331</ele><time>2026-04-11T15:56:41.064Z</time></trkpt><trkpt lat="45.7970785" lon="12.1436452"><ele>146.0</ele><time>2026-04-11T15:56:42.06Z</time></trkpt><trkpt lat="45.7970478" lon="12.1438126"><ele>146.0</ele><time>2026-04-11T15:56:44.058Z</time></trkpt><trkpt lat="45.7970144" lon="12.1438957"><ele>146.0</ele><time>2026-04-11T15:56:45.052Z</time></trkpt><trkpt lat="45.7969698" lon="12.1439684"><ele>146.0</ele><time>2026-04-11T15:56:46.06Z</time></trkpt><trkpt lat="45.7969232" lon="12.1440399"><ele>146.0</ele><time>2026-04-11T15:56:47.058Z</time></trkpt><trkpt lat="45.796877" lon="12.1441304"><ele>146.0</ele><time>2026-04-11T15:56:48.058Z</time></trkpt><trkpt lat="45.7968309" lon="12.1442332"><ele>146.0</ele><time>2026-04-11T15:56:49.052Z</time></trkpt><trkpt lat="45.7967843" lon="12.1443447"><ele>143.5</ele><time>2026-04-11T15:56:50.057Z</time></trkpt><trkpt lat="45.7967326" lon="12.1444631"><ele>141.0</ele><time>2026-04-11T15:56:51.055Z</time></trkpt><trkpt lat="45.7966876" lon="12.1445639"><ele>138.5</ele><time>2026-04-11T15:56:52.058Z</time></trkpt><trkpt lat="45.7966472" lon="12.1446607"><ele>136.0</ele><time>2026-04-11T15:56:53.058Z</time></trkpt><trkpt lat="45.7966004" lon="12.1447623"><ele>133.5</ele><time>2026-04-11T15:56:54.058Z</time></trkpt><trkpt lat="45.7965628" lon="12.1448519"><ele>131.0</ele><time>2026-04-11T15:56:55.059Z</time></trkpt><trkpt lat="45.7965289" lon="12.144936"><ele>130.4</ele><time>2026-04-11T15:56:56.063Z</time></trkpt><trkpt lat="45.7964673" lon="12.1450814"><ele>129.8</ele><time>2026-04-11T15:56:58.057Z</time></trkpt><trkpt lat="45.7963972" lon="12.1451873"><ele>129.20000000000002</ele><time>2026-04-11T15:57:00.059Z</time></trkpt><trkpt lat="45.7963224" lon="12.1452613"><ele>128.6</ele><time>2026-04-11T15:57:02.059Z</time></trkpt><trkpt lat="45.796242" lon="12.145326"><ele>128.0</ele><time>2026-04-11T15:57:04.066Z</time></trkpt><trkpt lat="45.7961476" lon="12.145399"><ele>127.99999999999999</ele><time>2026-04-11T15:57:06.052Z</time></trkpt><trkpt lat="45.7960797" lon="12.1454574"><ele>128.0</ele><time>2026-04-11T15:57:07.06Z</time></trkpt><trkpt lat="45.7960138" lon="12.1455298"><ele>128.0</ele><time>2026-04-11T15:57:08.062Z</time></trkpt><trkpt lat="45.7959571" lon="12.1456145"><ele>128.0</ele><time>2026-04-11T15:57:09.055Z</time></trkpt><trkpt lat="45.7959023" lon="12.1457057"><ele>127.99999999999999</ele><time>2026-04-11T15:57:10.056Z</time></trkpt><trkpt lat="45.7958513" lon="12.1457983"><ele>128.0</ele><time>2026-04-11T15:57:11.05Z</time></trkpt><trkpt lat="45.7957905" lon="12.1458729"><ele>126.0</ele><time>2026-04-11T15:57:12.048Z</time></trkpt><trkpt lat="45.7957129" lon="12.1459454"><ele>124.00000000000001</ele><time>2026-04-11T15:57:13.053Z</time></trkpt><trkpt lat="45.7956277" lon="12.146019"><ele>122.00000000000001</ele><time>2026-04-11T15:57:14.052Z</time></trkpt><trkpt lat="45.7955438" lon="12.1460912"><ele>120.0</ele><time>2026-04-11T15:57:15.059Z</time></trkpt><trkpt lat="45.7954668" lon="12.1461627"><ele>118.0</ele><time>2026-04-11T15:57:16.052Z</time></trkpt><trkpt lat="45.7953928" lon="12.1462357"><ele>118.00000000000001</ele><time>2026-04-11T15:57:17.056Z</time></trkpt><trkpt lat="45.7953146" lon="12.1462989"><ele>118.0</ele><time>2026-04-11T15:57:18.061Z</time></trkpt><trkpt lat="45.7952307" lon="12.1463462"><ele>118.0</ele><time>2026-04-11T15:57:19.056Z</time></trkpt><trkpt lat="45.7951488" lon="12.1463863"><ele>118.0</ele><time>2026-04-11T15:57:20.064Z</time></trkpt><trkpt lat="45.7950722" lon="12.1464373"><ele>118.00000000000001</ele><time>2026-04-11T15:57:21.062Z</time></trkpt><trkpt lat="45.7950017" lon="12.1464963"><ele>118.0</ele><time>2026-04-11T15:57:22.061Z</time></trkpt><trkpt lat="45.7949329" lon="12.1465627"><ele>115.50000000000001</ele><time>2026-04-11T15:57:23.059Z</time></trkpt><trkpt lat="45.7948598" lon="12.1466243"><ele>113.0</ele><time>2026-04-11T15:57:24.062Z</time></trkpt><trkpt lat="45.7947949" lon="12.1466726"><ele>110.5</ele><time>2026-04-11T15:57:25.063Z</time></trkpt><trkpt lat="45.7947334" lon="12.1467037"><ele>108.0</ele><time>2026-04-11T15:57:26.056Z</time></trkpt><trkpt lat="45.7946104" lon="12.1466691"><ele>105.50000000000001</ele><time>2026-04-11T15:57:28.065Z</time></trkpt><trkpt lat="45.7945514" lon="12.1466345"><ele>103.0</ele><time>2026-04-11T15:57:29.055Z</time></trkpt><trkpt lat="45.7944475" lon="12.1465544"><ele>103.80000000000001</ele><time>2026-04-11T15:57:31.057Z</time></trkpt><trkpt lat="45.7943538" lon="12.1464856"><ele>104.6</ele><time>2026-04-11T15:57:33.052Z</time></trkpt><trkpt lat="45.7942772" lon="12.1464126"><ele>105.39999999999999</ele><time>2026-04-11T15:57:35.064Z</time></trkpt><trkpt lat="45.7941991" lon="12.1463506"><ele>106.19999999999999</ele><time>2026-04-11T15:57:37.058Z</time></trkpt><trkpt lat="45.7941201" lon="12.1462985"><ele>107.0</ele><time>2026-04-11T15:57:39.06Z</time></trkpt><trkpt lat="45.7940195" lon="12.146209"><ele>96.0</ele><time>2026-04-11T15:57:41.053Z</time></trkpt><trkpt lat="45.7939528" lon="12.1461519"><ele>96.0</ele><time>2026-04-11T15:57:42.061Z</time></trkpt><trkpt lat="45.7938845" lon="12.1461002"><ele>96.0</ele><time>2026-04-11T15:57:43.053Z</time></trkpt><trkpt lat="45.7938217" lon="12.146055"><ele>96.0</ele><time>2026-04-11T15:57:44.054Z</time></trkpt><trkpt lat="45.7937377" lon="12.145979"><ele>96.0</ele><time>2026-04-11T15:57:46.063Z</time></trkpt><trkpt lat="45.7936758" lon="12.1459372"><ele>96.0</ele><time>2026-04-11T15:57:49.054Z</time></trkpt></trkseg></trk></gpx>